Wetterdaten: Mittwoch, 07.04.2021
Datum Zeit Temp. Aussen Temp. o. S. Temp +5cm Feuchte Auss Luftdruck Regen Sonnenschein Regendauer Solar Windben Empfang
07.04.2021 00:00 0,0 C -0,6 C -1,6 C 96 % 1013,7 hPa 0,0 l/m 0 min 0 min 0 W/m 6,4 km/h (2 Bft) 95,74 %
07.04.2021 00:02 0,0 C -0,6 C -1,6 C 96 % 1013,7 hPa 0,0 l/m 0 min 0 min 0 W/m 6,4 km/h (2 Bft) 94,44 %
07.04.2021 00:04 0,0 C -0,6 C -1,6 C 96 % 1013,7 hPa 0,0 l/m 0 min 0 min 0 W/m 6,4 km/h (2 Bft) 95,74 %
07.04.2021 00:08 -0,1 C -0,6 C -1,6 C 96 % 1013,9 hPa 0,0 l/m 0 min 0 min 0 W/m 9,7 km/h (2 Bft) 95,74 %
07.04.2021 00:10 -0,1 C -0,6 C -1,6 C 96 % 1013,9 hPa 0,0 l/m 0 min 0 min 0 W/m 6,4 km/h (2 Bft) 95,74 %
07.04.2021 00:12 -0,1 C -0,6 C -1,6 C 96 % 1013,9 hPa 0,0 l/m 0 min 0 min 0 W/m 12,9 km/h (3 Bft) 95,74 %
07.04.2021 00:14 -0,1 C -0,6 C -1,6 C 96 % 1013,8 hPa 0,0 l/m 0 min 0 min 0 W/m 6,4 km/h (2 Bft) 95,74 %
07.04.2021 00:16 -0,1 C -0,6 C -1,6 C 96 % 1013,8 hPa 0,0 l/m 0 min 0 min 0 W/m 3,2 km/h (1 Bft) 95,65 %
07.04.2021 00:18 -0,1 C -0,6 C -1,6 C 96 % 1013,9 hPa 0,0 l/m 0 min 0 min 0 W/m 6,4 km/h (2 Bft) 95,74 %
07.04.2021 00:20 -0,1 C -0,6 C -1,6 C 96 % 1013,8 hPa 0,0 l/m 0 min 0 min 0 W/m 6,4 km/h (2 Bft) 95,74 %
07.04.2021 00:22 -0,1 C -0,6 C -1,6 C 96 % 1013,8 hPa 0,0 l/m 0 min 0 min 0 W/m 3,2 km/h (1 Bft) 97,87 %
07.04.2021 00:24 -0,2 C -0,6 C -1,6 C 96 % 1013,8 hPa 0,0 l/m 0 min 0 min 0 W/m 6,4 km/h (2 Bft) 97,87 %
07.04.2021 00:26 -0,2 C -0,6 C -1,6 C 96 % 1013,8 hPa 0,0 l/m 0 min 0 min 0 W/m 9,7 km/h (2 Bft) 95,74 %
07.04.2021 00:28 -0,2 C -1,1 C -1,6 C 96 % 1013,8 hPa 0,0 l/m 0 min 0 min 0 W/m 12,9 km/h (3 Bft) 97,83 %
07.04.2021 00:30 -0,2 C -0,6 C -1,6 C 96 % 1013,8 hPa 0,0 l/m 0 min 0 min 0 W/m 9,7 km/h (2 Bft) 95,74 %
07.04.2021 00:32 -0,2 C -1,1 C -1,6 C 96 % 1013,8 hPa 0,0 l/m 0 min 0 min 0 W/m 16,1 km/h (3 Bft) 97,87 %
07.04.2021 00:34 -0,2 C -1,1 C -1,6 C 96 % 1013,9 hPa 0,0 l/m 0 min 0 min 0 W/m 6,4 km/h (2 Bft) 95,74 %
07.04.2021 00:36 -0,2 C -1,1 C -1,6 C 96 % 1013,9 hPa 0,0 l/m 0 min 0 min 0 W/m 6,4 km/h (2 Bft) 95,74 %
07.04.2021 00:38 -0,3 C -1,1 C -1,6 C 96 % 1014,0 hPa 0,0 l/m 0 min 0 min 0 W/m 3,2 km/h (1 Bft) 93,62 %
07.04.2021 00:40 -0,3 C -1,1 C -1,6 C 96 % 1014,0 hPa 0,0 l/m 0 min 0 min 0 W/m 12,9 km/h (3 Bft) 93,48 %
07.04.2021 00:42 -0,4 C -1,1 C -1,6 C 96 % 1014,0 hPa 0,0 l/m 0 min 0 min 0 W/m 3,2 km/h (1 Bft) 95,74 %
07.04.2021 00:44 -0,4 C -1,1 C -1,6 C 96 % 1014,0 hPa 0,0 l/m 0 min 0 min 0 W/m 3,2 km/h (1 Bft) 93,62 %
07.04.2021 00:46 -0,4 C -1,1 C -1,6 C 96 % 1014,0 hPa 0,0 l/m 0 min 0 min 0 W/m 3,2 km/h (1 Bft) 95,74 %
07.04.2021 00:48 -0,4 C -1,1 C -1,6 C 96 % 1014,0 hPa 0,0 l/m 0 min 0 min 0 W/m 12,9 km/h (3 Bft) 95,74 %
07.04.2021 00:50 -0,4 C -1,1 C -1,6 C 96 % 1014,0 hPa 0,0 l/m 0 min 0 min 0 W/m 9,7 km/h (2 Bft) 93,62 %
07.04.2021 00:52 -0,4 C -1,1 C -1,6 C 96 % 1014,0 hPa 0,0 l/m 0 min 0 min 0 W/m 3,2 km/h (1 Bft) 95,65 %
07.04.2021 00:54 -0,4 C -1,1 C -1,6 C 96 % 1014,0 hPa 0,0 l/m 0 min 0 min 0 W/m 6,4 km/h (2 Bft) 93,62 %
07.04.2021 00:56 -0,4 C -1,1 C -1,6 C 96 % 1014,0 hPa 0,0 l/m 0 min 0 min 0 W/m 6,4 km/h (2 Bft) 95,74 %
07.04.2021 00:58 -0,4 C -1,1 C -1,6 C 96 % 1014,1 hPa 0,0 l/m 0 min 0 min 0 W/m 6,4 km/h (2 Bft) 95,74 %
07.04.2021 01:00 -0,4 C -1,1 C -1,6 C 96 % 1014,1 hPa 0,0 l/m 0 min 0 min 0 W/m 9,7 km/h (2 Bft) 95,74 %
07.04.2021 01:02 -0,4 C -1,1 C -1,6 C 96 % 1014,1 hPa 0,0 l/m 0 min 0 min 0 W/m 12,9 km/h (3 Bft) 93,62 %
07.04.2021 01:04 -0,4 C -1,1 C -1,6 C 96 % 1014,1 hPa 0,0 l/m 0 min 0 min 0 W/m 6,4 km/h (2 Bft) 95,65 %
07.04.2021 01:06 -0,4 C -1,1 C -1,6 C 96 % 1014,1 hPa 0,0 l/m 0 min 0 min 0 W/m 9,7 km/h (2 Bft) 95,83 %
07.04.2021 01:08 -0,4 C -1,1 C -1,6 C 96 % 1014,1 hPa 0,0 l/m 0 min 0 min 0 W/m 9,7 km/h (2 Bft) 94,55 %
07.04.2021 01:10 -0,5 C -1,1 C -1,6 C 96 % 1014,1 hPa 0,0 l/m 0 min 0 min 0 W/m 6,4 km/h (2 Bft) 95,74 %
07.04.2021 01:12 -0,4 C -1,1 C -1,6 C 96 % 1014,1 hPa 0,0 l/m 0 min 0 min 0 W/m 12,9 km/h (3 Bft) 93,75 %
07.04.2021 01:14 -0,5 C -1,1 C -1,6 C 96 % 1014,2 hPa 0,0 l/m 0 min 0 min 0 W/m 6,4 km/h (2 Bft) 97,14 %
07.04.2021 01:16 -0,5 C -1,1 C -1,6 C 96 % 1014,2 hPa 0,0 l/m 0 min 0 min 0 W/m 6,4 km/h (2 Bft) 96,61 %
07.04.2021 01:18 -0,5 C -1,1 C -1,6 C 96 % 1014,2 hPa 0,0 l/m 0 min 0 min 0 W/m 6,4 km/h (2 Bft) 97,83 %
07.04.2021 01:20 -0,5 C -1,1 C -1,6 C 96 % 1014,2 hPa 0,0 l/m 0 min 0 min 0 W/m 12,9 km/h (3 Bft) 97,87 %
07.04.2021 01:22 -0,4 C -1,1 C -1,6 C 96 % 1014,2 hPa 0,0 l/m 0 min 0 min 0 W/m 6,4 km/h (2 Bft) 94,29 %
07.04.2021 01:24 -0,4 C -1,1 C -1,6 C 96 % 1014,1 hPa 0,0 l/m 0 min 0 min 0 W/m 12,9 km/h (3 Bft) 97,87 %
07.04.2021 01:26 -0,4 C -1,1 C -1,6 C 96 % 1014,1 hPa 0,0 l/m 0 min 0 min 0 W/m 6,4 km/h (2 Bft) 96,61 %
07.04.2021 01:28 -0,4 C -1,1 C -1,6 C 96 % 1014,1 hPa 0,0 l/m 0 min 0 min 0 W/m 6,4 km/h (2 Bft) 97,14 %
07.04.2021 01:30 -0,5 C -1,1 C -2,2 C 96 % 1014,2 hPa 0,0 l/m 0 min 0 min 0 W/m 6,4 km/h (2 Bft) 100,00 %
07.04.2021 01:32 -0,5 C -1,1 C -1,6 C 96 % 1014,2 hPa 0,0 l/m 0 min 0 min 0 W/m 6,4 km/h (2 Bft) 97,92 %
07.04.2021 01:34 -0,5 C -1,1 C -1,6 C 96 % 1014,2 hPa 0,0 l/m 0 min 0 min 0 W/m 12,9 km/h (3 Bft) 100,00 %
07.04.2021 01:36 -0,5 C -1,1 C -1,6 C 96 % 1014,3 hPa 0,0 l/m 0 min 0 min 0 W/m 12,9 km/h (3 Bft) 97,87 %
07.04.2021 01:38 -0,5 C -1,1 C -1,6 C 96 % 1014,2 hPa 0,0 l/m 0 min 0 min 0 W/m 12,9 km/h (3 Bft) 100,00 %
07.04.2021 01:40 -0,5 C -1,1 C -2,2 C 96 % 1014,3 hPa 0,0 l/m 0 min 0 min 0 W/m 6,4 km/h (2 Bft) 100,00 %
07.04.2021 01:42 -0,5 C -1,1 C -2,2 C 96 % 1014,3 hPa 0,0 l/m 0 min 0 min 0 W/m 12,9 km/h (3 Bft) 100,00 %
07.04.2021 01:44 -0,5 C -1,1 C -2,2 C 96 % 1014,3 hPa 0,0 l/m 0 min 0 min 0 W/m 16,1 km/h (3 Bft) 100,00 %
07.04.2021 01:46 -0,5 C -1,1 C -1,6 C 96 % 1014,3 hPa 0,0 l/m 0 min 0 min 0 W/m 6,4 km/h (2 Bft) 97,87 %
07.04.2021 01:48 -0,5 C -1,1 C -1,6 C 96 % 1014,3 hPa 0,0 l/m 0 min 0 min 0 W/m 9,7 km/h (2 Bft) 97,87 %
07.04.2021 01:50 -0,5 C -1,1 C -1,6 C 96 % 1014,3 hPa 0,0 l/m 0 min 0 min 0 W/m 12,9 km/h (3 Bft) 100,00 %
07.04.2021 01:52 -0,4 C -1,1 C -1,6 C 96 % 1014,4 hPa 0,0 l/m 0 min 0 min 0 W/m 9,7 km/h (2 Bft) 100,00 %
07.04.2021 01:54 -0,4 C -1,1 C -1,6 C 96 % 1014,4 hPa 0,0 l/m 0 min 0 min 0 W/m 6,4 km/h (2 Bft) 100,00 %
07.04.2021 01:56 -0,4 C -1,1 C -1,6 C 96 % 1014,4 hPa 0,0 l/m 0 min 0 min 0 W/m 6,4 km/h (2 Bft) 97,83 %
07.04.2021 01:58 -0,4 C -1,1 C -1,6 C 96 % 1014,4 hPa 0,0 l/m 0 min 0 min 0 W/m 6,4 km/h (2 Bft) 100,00 %
07.04.2021 02:00 -0,4 C -1,1 C -1,6 C 96 % 1014,5 hPa 0,0 l/m 0 min 0 min 0 W/m 6,4 km/h (2 Bft) 100,00 %
07.04.2021 02:02 -0,5 C -1,1 C -1,6 C 96 % 1014,4 hPa 0,0 l/m 0 min 0 min 0 W/m 6,4 km/h (2 Bft) 100,00 %
07.04.2021 02:04 -0,5 C -1,1 C -1,6 C 96 % 1014,4 hPa 0,0 l/m 0 min 0 min 0 W/m 3,2 km/h (1 Bft) 97,87 %
07.04.2021 02:06 -0,5 C -1,1 C -1,6 C 96 % 1014,4 hPa 0,0 l/m 0 min 0 min 0 W/m 6,4 km/h (2 Bft) 100,00 %
07.04.2021 02:08 -0,5 C -1,1 C -1,6 C 96 % 1014,5 hPa 0,0 l/m 0 min 0 min 0 W/m 6,4 km/h (2 Bft) 100,00 %
07.04.2021 02:10 -0,5 C -1,1 C -1,6 C 96 % 1014,5 hPa 0,0 l/m 0 min 0 min 0 W/m 6,4 km/h (2 Bft) 100,00 %
07.04.2021 02:12 -0,5 C -1,1 C -1,6 C 96 % 1014,4 hPa 0,0 l/m 0 min 0 min 0 W/m 6,4 km/h (2 Bft) 100,00 %
07.04.2021 02:14 -0,5 C -1,1 C -1,6 C 96 % 1014,4 hPa 0,0 l/m 0 min 0 min 0 W/m 9,7 km/h (2 Bft) 97,87 %
07.04.2021 02:16 -0,5 C -1,1 C -2,2 C 96 % 1014,3 hPa 0,0 l/m 0 min 0 min 0 W/m 6,4 km/h (2 Bft) 100,00 %
07.04.2021 02:18 -0,5 C -1,1 C -1,6 C 96 % 1014,4 hPa 0,0 l/m 0 min 0 min 0 W/m 9,7 km/h (2 Bft) 100,00 %
07.04.2021 02:20 -0,5 C -1,1 C -1,6 C 96 % 1014,4 hPa 0,0 l/m 0 min 0 min 0 W/m 6,4 km/h (2 Bft) 100,00 %
07.04.2021 02:22 -0,5 C -1,1 C -1,6 C 96 % 1014,4 hPa 0,0 l/m 0 min 0 min 0 W/m 12,9 km/h (3 Bft) 97,87 %
07.04.2021 02:24 -0,5 C -1,1 C -1,6 C 96 % 1014,5 hPa 0,0 l/m 0 min 0 min 0 W/m 6,4 km/h (2 Bft) 95,74 %
07.04.2021 02:26 -0,5 C -1,1 C -1,6 C 96 % 1014,5 hPa 0,0 l/m 0 min 0 min 0 W/m 6,4 km/h (2 Bft) 100,00 %
07.04.2021 02:28 -0,5 C -1,1 C -1,6 C 96 % 1014,5 hPa 0,0 l/m 0 min 0 min 0 W/m 6,4 km/h (2 Bft) 97,87 %
07.04.2021 02:30 -0,5 C -1,1 C -1,6 C 96 % 1014,5 hPa 0,0 l/m 0 min 0 min 0 W/m 6,4 km/h (2 Bft) 100,00 %
07.04.2021 02:32 -0,5 C -1,1 C -1,6 C 96 % 1014,4 hPa 0,0 l/m 0 min 0 min 0 W/m 16,1 km/h (3 Bft) 100,00 %
07.04.2021 02:34 -0,5 C -1,1 C -1,6 C 96 % 1014,5 hPa 0,0 l/m 0 min 0 min 0 W/m 6,4 km/h (2 Bft) 100,00 %
07.04.2021 02:36 -0,5 C -1,1 C -1,6 C 96 % 1014,4 hPa 0,0 l/m 0 min 0 min 0 W/m 6,4 km/h (2 Bft) 100,00 %
07.04.2021 02:38 -0,5 C -1,1 C -1,6 C 96 % 1014,4 hPa 0,0 l/m 0 min 0 min 0 W/m 6,4 km/h (2 Bft) 100,00 %
07.04.2021 02:40 -0,5 C -1,1 C -1,6 C 95 % 1014,4 hPa 0,0 l/m 0 min 0 min 0 W/m 9,7 km/h (2 Bft) 100,00 %
07.04.2021 02:42 -0,4 C -1,1 C -1,6 C 95 % 1014,5 hPa 0,0 l/m 0 min 0 min 0 W/m 12,9 km/h (3 Bft) 100,00 %
07.04.2021 02:44 -0,5 C -1,1 C -1,6 C 95 % 1014,4 hPa 0,0 l/m 0 min 0 min 0 W/m 12,9 km/h (3 Bft) 95,65 %
07.04.2021 02:46 -0,4 C -1,1 C -1,6 C 95 % 1014,5 hPa 0,0 l/m 0 min 0 min 0 W/m 6,4 km/h (2 Bft) 97,87 %
07.04.2021 02:48 -0,4 C -1,1 C -1,6 C 95 % 1014,4 hPa 0,0 l/m 0 min 0 min 0 W/m 9,7 km/h (2 Bft) 95,74 %
07.04.2021 02:50 -0,4 C -1,1 C -1,6 C 95 % 1014,4 hPa 0,0 l/m 0 min 0 min 0 W/m 9,7 km/h (2 Bft) 97,87 %
07.04.2021 02:52 -0,4 C -1,1 C -1,6 C 95 % 1014,4 hPa 0,0 l/m 0 min 0 min 0 W/m 3,2 km/h (1 Bft) 95,74 %
07.04.2021 02:54 -0,4 C -1,1 C -1,6 C 95 % 1014,4 hPa 0,0 l/m 0 min 0 min 0 W/m 6,4 km/h (2 Bft) 93,48 %
07.04.2021 02:56 -0,5 C -1,1 C -1,6 C 95 % 1014,4 hPa 0,0 l/m 0 min 0 min 0 W/m 6,4 km/h (2 Bft) 95,83 %
07.04.2021 02:58 -0,5 C -1,1 C -1,6 C 95 % 1014,4 hPa 0,0 l/m 0 min 0 min 0 W/m 6,4 km/h (2 Bft) 95,74 %
07.04.2021 03:00 -0,5 C -1,1 C -1,6 C 95 % 1014,5 hPa 0,0 l/m 0 min 0 min 0 W/m 6,4 km/h (2 Bft) 94,29 %
07.04.2021 03:02 -0,5 C -1,1 C -1,6 C 95 % 1014,5 hPa 0,0 l/m 0 min 0 min 0 W/m 6,4 km/h (2 Bft) 96,23 %
07.04.2021 03:04 -0,5 C -1,1 C -1,6 C 95 % 1014,5 hPa 0,0 l/m 0 min 0 min 0 W/m 12,9 km/h (3 Bft) 95,74 %
07.04.2021 03:06 -0,5 C -1,1 C -1,6 C 95 % 1014,5 hPa 0,0 l/m 0 min 0 min 0 W/m 3,2 km/h (1 Bft) 93,62 %
07.04.2021 03:08 -0,5 C -1,1 C -1,6 C 95 % 1014,6 hPa 0,0 l/m 0 min 0 min 0 W/m 6,4 km/h (2 Bft) 93,62 %
07.04.2021 03:10 -0,5 C -1,1 C -1,6 C 95 % 1014,6 hPa 0,0 l/m 0 min 0 min 0 W/m 12,9 km/h (3 Bft) 93,62 %
07.04.2021 03:12 -0,5 C -1,1 C -1,6 C 95 % 1014,5 hPa 0,0 l/m 0 min 0 min 0 W/m 9,7 km/h (2 Bft) 93,62 %
07.04.2021 03:14 -0,5 C -1,1 C -1,6 C 95 % 1014,6 hPa 0,0 l/m 0 min 0 min 0 W/m 16,1 km/h (3 Bft) 95,74 %
07.04.2021 03:16 -0,5 C -1,1 C -1,6 C 95 % 1014,6 hPa 0,0 l/m 0 min 0 min 0 W/m 9,7 km/h (2 Bft) 93,62 %
07.04.2021 03:18 -0,5 C -1,1 C -1,6 C 95 % 1014,7 hPa 0,0 l/m 0 min 0 min 0 W/m 9,7 km/h (2 Bft) 95,74 %
07.04.2021 03:20 -0,5 C -1,1 C -1,6 C 95 % 1014,6 hPa 0,0 l/m 0 min 0 min 0 W/m 6,4 km/h (2 Bft) 95,65 %
07.04.2021 03:22 -0,5 C -1,1 C -1,6 C 95 % 1014,6 hPa 0,0 l/m 0 min 0 min 0 W/m 6,4 km/h (2 Bft) 95,74 %
07.04.2021 03:24 -0,5 C -1,1 C -1,6 C 95 % 1014,6 hPa 0,0 l/m 0 min 0 min 0 W/m 9,7 km/h (2 Bft) 95,74 %
07.04.2021 03:26 -0,5 C -1,1 C -1,6 C 95 % 1014,6 hPa 0,0 l/m 0 min 0 min 0 W/m 16,1 km/h (3 Bft) 95,74 %
07.04.2021 03:28 -0,5 C -1,1 C -1,6 C 95 % 1014,6 hPa 0,0 l/m 0 min 0 min 0 W/m 6,4 km/h (2 Bft) 95,74 %
07.04.2021 03:30 -0,4 C -1,1 C -1,6 C 95 % 1014,6 hPa 0,0 l/m 0 min 0 min 0 W/m 16,1 km/h (3 Bft) 91,49 %
07.04.2021 03:32 -0,4 C -1,1 C -1,6 C 95 % 1014,7 hPa 0,0 l/m 0 min 0 min 0 W/m 12,9 km/h (3 Bft) 95,74 %
07.04.2021 03:34 -0,4 C -1,1 C -1,6 C 95 % 1014,7 hPa 0,0 l/m 0 min 0 min 0 W/m 12,9 km/h (3 Bft) 97,87 %
07.04.2021 03:36 -0,4 C -1,1 C -1,6 C 95 % 1014,7 hPa 0,0 l/m 0 min 0 min 0 W/m 9,7 km/h (2 Bft) 97,87 %
07.04.2021 03:38 -0,4 C -1,1 C -1,6 C 95 % 1014,7 hPa 0,0 l/m 0 min 0 min 0 W/m 6,4 km/h (2 Bft) 95,74 %
07.04.2021 03:40 -0,4 C -0,6 C -1,6 C 95 % 1014,8 hPa 0,0 l/m 0 min 0 min 0 W/m 6,4 km/h (2 Bft) 97,87 %
07.04.2021 03:42 -0,4 C -0,6 C -1,6 C 95 % 1014,7 hPa 0,0 l/m 0 min 0 min 0 W/m 12,9 km/h (3 Bft) 100,00 %
07.04.2021 03:44 -0,3 C -0,6 C -1,6 C 95 % 1014,7 hPa 0,0 l/m 0 min 0 min 0 W/m 19,3 km/h (3 Bft) 100,00 %
07.04.2021 03:46 -0,3 C -0,6 C -1,1 C 95 % 1014,7 hPa 0,0 l/m 0 min 0 min 0 W/m 9,7 km/h (2 Bft) 97,87 %
07.04.2021 03:48 -0,3 C -0,6 C -1,1 C 95 % 1014,7 hPa 0,0 l/m 0 min 0 min 0 W/m 12,9 km/h (3 Bft) 100,00 %
07.04.2021 03:50 -0,3 C -0,6 C -1,1 C 95 % 1014,7 hPa 0,0 l/m 0 min 0 min 0 W/m 12,9 km/h (3 Bft) 100,00 %
07.04.2021 03:52 -0,2 C -0,6 C -1,1 C 95 % 1014,6 hPa 0,0 l/m 0 min 0 min 0 W/m 16,1 km/h (3 Bft) 100,00 %
07.04.2021 03:54 -0,2 C -0,6 C -1,1 C 95 % 1014,7 hPa 0,0 l/m 0 min 0 min 0 W/m 6,4 km/h (2 Bft) 100,00 %
07.04.2021 03:56 -0,2 C -0,6 C -1,1 C 95 % 1014,7 hPa 0,0 l/m 0 min 0 min 0 W/m 9,7 km/h (2 Bft) 100,00 %
07.04.2021 03:58 -0,2 C -0,6 C -1,1 C 95 % 1014,6 hPa 0,0 l/m 0 min 0 min 0 W/m 12,9 km/h (3 Bft) 100,00 %
07.04.2021 04:00 -0,2 C -0,6 C -1,6 C 95 % 1014,6 hPa 0,0 l/m 0 min 0 min 0 W/m 12,9 km/h (3 Bft) 100,00 %
07.04.2021 04:02 -0,2 C -0,6 C -1,1 C 95 % 1014,6 hPa 0,0 l/m 0 min 0 min 0 W/m 6,4 km/h (2 Bft) 96,77 %
07.04.2021 04:04 -0,2 C -0,6 C -1,6 C 95 % 1014,6 hPa 0,0 l/m 0 min 0 min 0 W/m 19,3 km/h (3 Bft) 100,00 %
07.04.2021 04:06 -0,2 C -0,6 C -1,6 C 95 % 1014,6 hPa 0,0 l/m 0 min 0 min 0 W/m 6,4 km/h (2 Bft) 100,00 %
07.04.2021 04:08 -0,2 C -0,6 C -1,6 C 95 % 1014,6 hPa 0,0 l/m 0 min 0 min 0 W/m 12,9 km/h (3 Bft) 100,00 %
07.04.2021 04:10 -0,2 C -0,6 C -1,1 C 95 % 1014,7 hPa 0,0 l/m 0 min 0 min 0 W/m 12,9 km/h (3 Bft) 100,00 %
07.04.2021 04:12 -0,2 C -0,6 C -1,1 C 95 % 1014,7 hPa 0,0 l/m 0 min 0 min 0 W/m 12,9 km/h (3 Bft) 97,87 %
07.04.2021 04:14 -0,2 C -0,6 C -1,1 C 95 % 1014,7 hPa 0,0 l/m 0 min 0 min 0 W/m 6,4 km/h (2 Bft) 100,00 %
07.04.2021 04:16 -0,2 C -0,6 C -1,1 C 95 % 1014,6 hPa 0,0 l/m 0 min 0 min 0 W/m 12,9 km/h (3 Bft) 100,00 %
07.04.2021 04:18 -0,2 C -0,6 C -1,1 C 95 % 1014,6 hPa 0,0 l/m 0 min 0 min 0 W/m 9,7 km/h (2 Bft) 97,83 %
07.04.2021 04:20 -0,2 C -0,6 C -1,1 C 95 % 1014,6 hPa 0,0 l/m 0 min 0 min 0 W/m 16,1 km/h (3 Bft) 100,00 %
07.04.2021 04:22 -0,2 C -0,6 C -1,1 C 95 % 1014,6 hPa 0,0 l/m 0 min 0 min 0 W/m 9,7 km/h (2 Bft) 100,00 %
07.04.2021 04:24 -0,2 C -0,6 C -1,1 C 95 % 1014,6 hPa 0,0 l/m 0 min 0 min 0 W/m 9,7 km/h (2 Bft) 100,00 %
07.04.2021 04:26 -0,2 C -0,6 C -1,1 C 95 % 1014,6 hPa 0,0 l/m 0 min 0 min 0 W/m 9,7 km/h (2 Bft) 100,00 %
07.04.2021 04:28 -0,2 C -0,6 C -1,1 C 95 % 1014,5 hPa 0,0 l/m 0 min 0 min 0 W/m 6,4 km/h (2 Bft) 100,00 %
07.04.2021 04:30 -0,2 C -0,6 C -1,1 C 95 % 1014,6 hPa 0,0 l/m 0 min 0 min 0 W/m 19,3 km/h (3 Bft) 97,87 %
07.04.2021 04:32 -0,2 C -0,6 C -1,1 C 95 % 1014,6 hPa 0,0 l/m 0 min 0 min 0 W/m 12,9 km/h (3 Bft) 100,00 %
07.04.2021 04:34 -0,2 C -0,6 C -1,1 C 95 % 1014,5 hPa 0,0 l/m 0 min 0 min 0 W/m 6,4 km/h (2 Bft) 100,00 %
07.04.2021 04:36 -0,2 C -0,6 C -1,1 C 95 % 1014,5 hPa 0,0 l/m 0 min 0 min 0 W/m 6,4 km/h (2 Bft) 85,11 %
07.04.2021 04:38 -0,2 C -0,6 C -1,1 C 95 % 1014,5 hPa 0,0 l/m 0 min 0 min 0 W/m 6,4 km/h (2 Bft) 72,34 %
07.04.2021 04:40 -0,2 C -0,6 C -1,1 C 95 % 1014,5 hPa 0,0 l/m 0 min 0 min 0 W/m 6,4 km/h (2 Bft) 97,83 %
07.04.2021 04:42 -0,2 C -0,6 C -1,1 C 95 % 1014,6 hPa 0,0 l/m 0 min 0 min 0 W/m 6,4 km/h (2 Bft) 100,00 %
07.04.2021 04:44 -0,1 C -0,6 C -1,1 C 95 % 1014,5 hPa 0,0 l/m 0 min 0 min 0 W/m 6,4 km/h (2 Bft) 100,00 %
07.04.2021 04:46 -0,1 C -0,6 C -1,1 C 95 % 1014,5 hPa 0,0 l/m 0 min 0 min 0 W/m 6,4 km/h (2 Bft) 97,87 %
07.04.2021 04:48 -0,1 C -0,6 C -1,1 C 95 % 1014,5 hPa 0,0 l/m 0 min 0 min 0 W/m 6,4 km/h (2 Bft) 100,00 %
07.04.2021 04:50 -0,1 C -0,6 C -1,1 C 95 % 1014,5 hPa 0,0 l/m 0 min 0 min 0 W/m 12,9 km/h (3 Bft) 100,00 %
07.04.2021 04:52 -0,1 C -0,6 C -1,1 C 95 % 1014,5 hPa 0,0 l/m 0 min 0 min 0 W/m 12,9 km/h (3 Bft) 100,00 %
07.04.2021 04:54 -0,2 C -0,6 C -1,1 C 95 % 1014,5 hPa 0,0 l/m 0 min 0 min 0 W/m 19,3 km/h (3 Bft) 100,00 %
07.04.2021 04:56 -0,1 C -0,6 C -1,1 C 95 % 1014,5 hPa 0,0 l/m 0 min 0 min 0 W/m 12,9 km/h (3 Bft) 95,74 %
07.04.2021 04:58 -0,1 C -0,6 C -1,1 C 95 % 1014,5 hPa 0,0 l/m 0 min 0 min 0 W/m 9,7 km/h (2 Bft) 100,00 %
07.04.2021 05:00 -0,1 C -0,6 C -1,1 C 95 % 1014,5 hPa 0,0 l/m 0 min 0 min 0 W/m 6,4 km/h (2 Bft) 97,87 %
07.04.2021 05:02 -0,1 C -0,6 C -1,1 C 95 % 1014,6 hPa 0,0 l/m 0 min 0 min 0 W/m 12,9 km/h (3 Bft) 95,74 %
07.04.2021 05:04 -0,1 C -0,6 C -1,1 C 95 % 1014,6 hPa 0,0 l/m 0 min 0 min 0 W/m 12,9 km/h (3 Bft) 97,87 %
07.04.2021 05:06 -0,1 C -0,6 C -1,1 C 95 % 1014,6 hPa 0,0 l/m 0 min 0 min 0 W/m 9,7 km/h (2 Bft) 94,74 %
07.04.2021 05:08 -0,1 C -0,6 C -1,1 C 95 % 1014,6 hPa 0,0 l/m 0 min 0 min 0 W/m 6,4 km/h (2 Bft) 97,83 %
07.04.2021 05:10 0,0 C -0,6 C -1,1 C 95 % 1014,7 hPa 0,0 l/m 0 min 0 min 0 W/m 12,9 km/h (3 Bft) 100,00 %
07.04.2021 05:12 0,0 C -0,6 C -1,1 C 95 % 1014,7 hPa 0,0 l/m 0 min 0 min 0 W/m 9,7 km/h (2 Bft) 97,87 %
07.04.2021 05:14 0,0 C -0,6 C -1,1 C 95 % 1014,7 hPa 0,0 l/m 0 min 0 min 0 W/m 12,9 km/h (3 Bft) 97,87 %
07.04.2021 05:16 0,0 C -0,6 C -1,1 C 95 % 1014,7 hPa 0,0 l/m 0 min 0 min 0 W/m 12,9 km/h (3 Bft) 97,87 %
07.04.2021 05:18 0,0 C -0,6 C -1,1 C 95 % 1014,7 hPa 0,0 l/m 0 min 0 min 0 W/m 12,9 km/h (3 Bft) 100,00 %
07.04.2021 05:20 0,0 C -0,6 C -1,1 C 95 % 1014,6 hPa 0,0 l/m 0 min 0 min 0 W/m 6,4 km/h (2 Bft) 100,00 %
07.04.2021 05:22 0,0 C -0,6 C -1,1 C 95 % 1014,6 hPa 0,0 l/m 0 min 0 min 0 W/m 12,9 km/h (3 Bft) 95,74 %
07.04.2021 05:24 0,0 C -0,6 C -1,1 C 95 % 1014,7 hPa 0,0 l/m 0 min 0 min 0 W/m 12,9 km/h (3 Bft) 97,87 %
07.04.2021 05:26 0,0 C -0,6 C -1,1 C 95 % 1014,6 hPa 0,0 l/m 0 min 0 min 0 W/m 9,7 km/h (2 Bft) 95,74 %
07.04.2021 05:28 0,0 C -0,6 C -1,1 C 95 % 1014,6 hPa 0,0 l/m 0 min 0 min 0 W/m 12,9 km/h (3 Bft) 100,00 %
07.04.2021 05:30 0,0 C -0,6 C -1,1 C 95 % 1014,6 hPa 0,0 l/m 0 min 0 min 0 W/m 12,9 km/h (3 Bft) 95,74 %
07.04.2021 05:32 0,0 C -0,6 C -1,1 C 95 % 1014,6 hPa 0,0 l/m 0 min 0 min 0 W/m 12,9 km/h (3 Bft) 98,11 %
07.04.2021 05:34 0,0 C -0,6 C -1,1 C 95 % 1014,6 hPa 0,0 l/m 0 min 0 min 0 W/m 6,4 km/h (2 Bft) 97,87 %
07.04.2021 05:36 0,0 C -0,6 C -1,1 C 95 % 1014,6 hPa 0,0 l/m 0 min 0 min 0 W/m 6,4 km/h (2 Bft) 95,74 %
07.04.2021 05:38 0,1 C -0,6 C -1,1 C 95 % 1014,6 hPa 0,0 l/m 0 min 0 min 0 W/m 6,4 km/h (2 Bft) 95,83 %
07.04.2021 05:40 0,1 C -0,6 C -1,1 C 95 % 1014,6 hPa 0,0 l/m 0 min 0 min 0 W/m 12,9 km/h (3 Bft) 97,83 %
07.04.2021 05:42 0,1 C -0,6 C -1,1 C 95 % 1014,5 hPa 0,0 l/m 0 min 0 min 0 W/m 6,4 km/h (2 Bft) 97,87 %
07.04.2021 05:44 0,1 C -0,6 C -1,1 C 95 % 1014,5 hPa 0,0 l/m 0 min 0 min 0 W/m 12,9 km/h (3 Bft) 97,87 %
07.04.2021 05:46 0,1 C -0,6 C -1,1 C 95 % 1014,5 hPa 0,0 l/m 0 min 0 min 0 W/m 12,9 km/h (3 Bft) 97,87 %
07.04.2021 05:48 0,1 C 0,0 C -0,5 C 95 % 1014,5 hPa 0,0 l/m 0 min 0 min 0 W/m 16,1 km/h (3 Bft) 95,74 %
07.04.2021 05:50 0,1 C 0,0 C -1,1 C 96 % 1014,5 hPa 0,0 l/m 0 min 0 min 0 W/m 16,1 km/h (3 Bft) 97,87 %
07.04.2021 05:52 0,1 C 0,0 C -1,1 C 96 % 1014,5 hPa 0,0 l/m 0 min 0 min 0 W/m 16,1 km/h (3 Bft) 97,83 %
07.04.2021 05:54 0,1 C 0,0 C -0,5 C 96 % 1014,5 hPa 0,0 l/m 0 min 0 min 0 W/m 6,4 km/h (2 Bft) 100,00 %
07.04.2021 05:56 0,1 C 0,0 C -1,1 C 96 % 1014,5 hPa 0,0 l/m 0 min 0 min 0 W/m 6,4 km/h (2 Bft) 100,00 %
07.04.2021 05:58 0,1 C 0,0 C -0,5 C 96 % 1014,5 hPa 0,0 l/m 0 min 0 min 0 W/m 16,1 km/h (3 Bft) 97,87 %
07.04.2021 06:00 0,1 C 0,0 C -0,5 C 96 % 1014,5 hPa 0,0 l/m 0 min 0 min 0 W/m 16,1 km/h (3 Bft) 95,74 %
07.04.2021 06:02 0,1 C 0,0 C -0,5 C 96 % 1014,4 hPa 0,0 l/m 0 min 0 min 0 W/m 12,9 km/h (3 Bft) 97,92 %
07.04.2021 06:04 0,1 C 0,0 C -0,5 C 96 % 1014,4 hPa 0,0 l/m 0 min 0 min 0 W/m 19,3 km/h (3 Bft) 97,87 %
07.04.2021 06:08 0,1 C 0,0 C -0,5 C 96 % 1014,4 hPa 0,0 l/m 0 min 0 min 0 W/m 12,9 km/h (3 Bft) 95,83 %
07.04.2021 06:10 0,1 C 0,0 C -0,5 C 96 % 1014,5 hPa 0,0 l/m 0 min 0 min 0 W/m 9,7 km/h (2 Bft) 97,87 %
07.04.2021 06:12 0,2 C 0,0 C -0,5 C 96 % 1014,6 hPa 0,0 l/m 0 min 0 min 0 W/m 12,9 km/h (3 Bft) 97,62 %
07.04.2021 06:14 0,2 C 0,0 C -0,5 C 96 % 1014,6 hPa 0,0 l/m 0 min 0 min 0 W/m 9,7 km/h (2 Bft) 95,83 %
07.04.2021 06:16 0,2 C 0,0 C -0,5 C 96 % 1014,6 hPa 0,0 l/m 0 min 0 min 0 W/m 12,9 km/h (3 Bft) 97,87 %
07.04.2021 06:18 0,2 C 0,0 C -0,5 C 96 % 1014,6 hPa 0,0 l/m 0 min 0 min 0 W/m 12,9 km/h (3 Bft) 97,92 %
07.04.2021 06:20 0,2 C 0,0 C -1,1 C 96 % 1014,5 hPa 0,0 l/m 0 min 0 min 0 W/m 3,2 km/h (1 Bft) 97,87 %
07.04.2021 06:22 0,2 C 0,0 C -1,1 C 96 % 1014,5 hPa 0,0 l/m 0 min 2 min 0 W/m 9,7 km/h (2 Bft) 95,74 %
07.04.2021 06:24 0,2 C 0,0 C -1,1 C 96 % 1014,5 hPa 0,0 l/m 0 min 0 min 0 W/m 6,4 km/h (2 Bft) 95,74 %
07.04.2021 06:26 0,2 C -0,6 C -1,1 C 96 % 1014,5 hPa 0,0 l/m 0 min 0 min 0 W/m 9,7 km/h (2 Bft) 97,83 %
07.04.2021 06:28 0,2 C -0,6 C -1,1 C 96 % 1014,5 hPa 0,0 l/m 0 min 0 min 0 W/m 6,4 km/h (2 Bft) 97,87 %
07.04.2021 06:30 0,2 C -0,6 C -1,1 C 96 % 1014,6 hPa 0,0 l/m 0 min 0 min 0 W/m 12,9 km/h (3 Bft) 97,87 %
07.04.2021 06:32 0,2 C 0,0 C -0,5 C 96 % 1014,5 hPa 0,0 l/m 0 min 0 min 0 W/m 9,7 km/h (2 Bft) 97,92 %
07.04.2021 06:34 0,2 C 0,0 C -1,1 C 96 % 1014,5 hPa 0,0 l/m 0 min 0 min 0 W/m 12,9 km/h (3 Bft) 95,74 %
07.04.2021 06:36 0,2 C 0,0 C -0,5 C 96 % 1014,5 hPa 0,0 l/m 0 min 0 min 0 W/m 12,9 km/h (3 Bft) 97,87 %
07.04.2021 06:38 0,2 C 0,0 C -0,5 C 96 % 1014,5 hPa 0,0 l/m 0 min 0 min 0 W/m 12,9 km/h (3 Bft) 97,87 %
07.04.2021 06:40 0,2 C 0,0 C -0,5 C 96 % 1014,5 hPa 0,0 l/m 0 min 0 min 0 W/m 19,3 km/h (3 Bft) 95,74 %
07.04.2021 06:42 0,2 C 0,0 C -0,5 C 96 % 1014,5 hPa 0,0 l/m 0 min 0 min 0 W/m 12,9 km/h (3 Bft) 97,92 %
07.04.2021 06:44 0,2 C 0,0 C -0,5 C 96 % 1014,6 hPa 0,0 l/m 0 min 0 min 0 W/m 6,4 km/h (2 Bft) 97,83 %
07.04.2021 06:46 0,3 C 0,0 C -0,5 C 96 % 1014,5 hPa 0,0 l/m 0 min 0 min 0 W/m 12,9 km/h (3 Bft) 97,87 %
07.04.2021 06:48 0,3 C 0,0 C -0,5 C 96 % 1014,6 hPa 0,0 l/m 0 min 0 min 0 W/m 22,5 km/h (4 Bft) 93,62 %
07.04.2021 06:50 0,3 C 0,0 C -0,5 C 96 % 1014,5 hPa 0,0 l/m 0 min 0 min 0 W/m 6,4 km/h (2 Bft) 100,00 %
07.04.2021 06:52 0,3 C 0,0 C -0,5 C 96 % 1014,5 hPa 0,0 l/m 0 min 0 min 0 W/m 16,1 km/h (3 Bft) 97,87 %
07.04.2021 06:54 0,3 C 0,0 C -0,5 C 96 % 1014,6 hPa 0,0 l/m 0 min 0 min 0 W/m 12,9 km/h (3 Bft) 97,83 %
07.04.2021 06:56 0,3 C 0,0 C -0,5 C 96 % 1014,7 hPa 0,0 l/m 0 min 0 min 0 W/m 16,1 km/h (3 Bft) 100,00 %
07.04.2021 06:58 0,3 C 0,0 C -0,5 C 96 % 1014,6 hPa 0,0 l/m 0 min 0 min 0 W/m 12,9 km/h (3 Bft) 100,00 %
07.04.2021 07:00 0,3 C 0,0 C -0,5 C 96 % 1014,5 hPa 0,0 l/m 0 min 0 min 0 W/m 16,1 km/h (3 Bft) 100,00 %
07.04.2021 07:02 0,3 C 0,0 C -0,5 C 96 % 1014,6 hPa 0,0 l/m 0 min 0 min 0 W/m 6,4 km/h (2 Bft) 100,00 %
07.04.2021 07:04 0,3 C 0,0 C -0,5 C 96 % 1014,6 hPa 0,0 l/m 0 min 0 min 0 W/m 16,1 km/h (3 Bft) 100,00 %
07.04.2021 07:06 0,3 C 0,0 C -0,5 C 96 % 1014,5 hPa 0,0 l/m 0 min 2 min 0 W/m 6,4 km/h (2 Bft) 100,00 %
07.04.2021 07:08 0,3 C 0,0 C -0,5 C 96 % 1014,5 hPa 0,0 l/m 0 min 0 min 0 W/m 12,9 km/h (3 Bft) 100,00 %
07.04.2021 07:10 0,3 C 0,0 C -0,5 C 96 % 1014,5 hPa 0,0 l/m 0 min 0 min 0 W/m 19,3 km/h (3 Bft) 100,00 %
07.04.2021 07:12 0,3 C 0,0 C -0,5 C 96 % 1014,5 hPa 0,0 l/m 0 min 2 min 0 W/m 16,1 km/h (3 Bft) 100,00 %
07.04.2021 07:14 0,3 C 0,0 C -0,5 C 96 % 1014,5 hPa 0,0 l/m 0 min 0 min 0 W/m 16,1 km/h (3 Bft) 100,00 %
07.04.2021 07:16 0,3 C 0,0 C -0,5 C 96 % 1014,5 hPa 0,0 l/m 0 min 0 min 0 W/m 16,1 km/h (3 Bft) 100,00 %
07.04.2021 07:18 0,3 C 0,0 C -1,1 C 96 % 1014,5 hPa 0,0 l/m 0 min 0 min 0 W/m 16,1 km/h (3 Bft) 100,00 %
07.04.2021 07:20 0,3 C 0,0 C -0,5 C 96 % 1014,5 hPa 0,0 l/m 0 min 2 min 0 W/m 19,3 km/h (3 Bft) 97,87 %
07.04.2021 07:22 0,3 C 0,0 C -1,1 C 96 % 1014,5 hPa 0,0 l/m 0 min 2 min 0 W/m 22,5 km/h (4 Bft) 95,74 %
07.04.2021 07:24 0,3 C 0,0 C -0,5 C 96 % 1014,4 hPa 0,0 l/m 0 min 0 min 0 W/m 12,9 km/h (3 Bft) 97,87 %
07.04.2021 07:26 0,3 C 0,0 C -1,1 C 96 % 1014,4 hPa 0,0 l/m 0 min 0 min 0 W/m 12,9 km/h (3 Bft) 97,83 %
07.04.2021 07:28 0,3 C 0,0 C -1,1 C 96 % 1014,4 hPa 0,0 l/m 0 min 0 min 0 W/m 12,9 km/h (3 Bft) 97,92 %
07.04.2021 07:30 0,3 C 0,0 C -1,1 C 96 % 1014,5 hPa 0,0 l/m 0 min 0 min 0 W/m 12,9 km/h (3 Bft) 95,74 %
07.04.2021 07:32 0,3 C 0,0 C -1,1 C 96 % 1014,5 hPa 0,0 l/m 0 min 0 min 0 W/m 6,4 km/h (2 Bft) 95,83 %
07.04.2021 07:34 0,3 C 0,0 C -1,1 C 96 % 1014,5 hPa 0,0 l/m 0 min 0 min 3 W/m 19,3 km/h (3 Bft) 95,74 %
07.04.2021 07:36 0,3 C 0,0 C -1,1 C 96 % 1014,5 hPa 0,0 l/m 0 min 0 min 6 W/m 12,9 km/h (3 Bft) 95,74 %
07.04.2021 07:38 0,3 C 0,0 C -1,1 C 96 % 1014,4 hPa 0,0 l/m 0 min 0 min 8 W/m 6,4 km/h (2 Bft) 93,62 %
07.04.2021 07:40 0,3 C 0,0 C -0,5 C 96 % 1014,4 hPa 0,0 l/m 0 min 0 min 9 W/m 12,9 km/h (3 Bft) 95,74 %
07.04.2021 07:42 0,3 C 0,0 C -0,5 C 96 % 1014,5 hPa 0,0 l/m 0 min 0 min 7 W/m 19,3 km/h (3 Bft) 95,74 %
07.04.2021 07:44 0,3 C 0,0 C -0,5 C 96 % 1014,4 hPa 0,0 l/m 0 min 0 min 7 W/m 6,4 km/h (2 Bft) 95,74 %
07.04.2021 07:46 0,3 C 0,0 C -1,1 C 96 % 1014,4 hPa 0,0 l/m 0 min 0 min 7 W/m 12,9 km/h (3 Bft) 95,74 %
07.04.2021 07:48 0,3 C 0,0 C -0,5 C 96 % 1014,4 hPa 0,0 l/m 0 min 0 min 7 W/m 12,9 km/h (3 Bft) 95,74 %
07.04.2021 07:50 0,3 C 0,0 C -1,1 C 96 % 1014,5 hPa 0,0 l/m 0 min 2 min 5 W/m 16,1 km/h (3 Bft) 93,48 %
07.04.2021 07:52 0,3 C 0,0 C -1,1 C 96 % 1014,5 hPa 0,0 l/m 0 min 0 min 6 W/m 12,9 km/h (3 Bft) 95,83 %
07.04.2021 07:54 0,3 C 0,0 C -1,1 C 96 % 1014,5 hPa 0,0 l/m 0 min 0 min 7 W/m 12,9 km/h (3 Bft) 95,65 %
07.04.2021 07:56 0,3 C 0,0 C -1,1 C 96 % 1014,5 hPa 0,0 l/m 0 min 0 min 8 W/m 6,4 km/h (2 Bft) 91,49 %
07.04.2021 07:58 0,3 C 0,0 C -1,1 C 96 % 1014,6 hPa 0,0 l/m 0 min 0 min 7 W/m 16,1 km/h (3 Bft) 95,74 %
07.04.2021 08:00 0,3 C -0,6 C -1,1 C 97 % 1014,5 hPa 0,0 l/m 0 min 0 min 7 W/m 9,7 km/h (2 Bft) 93,62 %
07.04.2021 08:02 0,3 C 0,0 C -1,1 C 97 % 1014,5 hPa 0,0 l/m 0 min 0 min 7 W/m 9,7 km/h (2 Bft) 95,74 %
07.04.2021 08:04 0,3 C 0,0 C -1,1 C 97 % 1014,5 hPa 0,0 l/m 0 min 0 min 8 W/m 9,7 km/h (2 Bft) 95,74 %
07.04.2021 08:06 0,3 C 0,0 C -1,1 C 97 % 1014,5 hPa 0,0 l/m 0 min 0 min 9 W/m 12,9 km/h (3 Bft) 91,30 %
07.04.2021 08:08 0,3 C 0,0 C -1,1 C 97 % 1014,4 hPa 0,0 l/m 0 min 0 min 7 W/m 12,9 km/h (3 Bft) 93,62 %
07.04.2021 08:10 0,3 C 0,0 C -1,1 C 97 % 1014,4 hPa 0,0 l/m 0 min 0 min 7 W/m 12,9 km/h (3 Bft) 95,74 %
07.04.2021 08:12 0,3 C 0,0 C -1,1 C 97 % 1014,3 hPa 0,0 l/m 0 min 0 min 8 W/m 22,5 km/h (4 Bft) 95,74 %
07.04.2021 08:14 0,3 C 0,0 C -1,1 C 97 % 1014,3 hPa 0,0 l/m 0 min 0 min 10 W/m 12,9 km/h (3 Bft) 93,62 %
07.04.2021 08:16 0,3 C 0,0 C -1,1 C 97 % 1014,3 hPa 0,0 l/m 0 min 0 min 13 W/m 16,1 km/h (3 Bft) 95,74 %
07.04.2021 08:18 0,3 C 0,0 C -1,1 C 97 % 1014,2 hPa 0,0 l/m 0 min 0 min 16 W/m 16,1 km/h (3 Bft) 95,65 %
07.04.2021 08:20 0,3 C 0,0 C -1,1 C 97 % 1014,2 hPa 0,0 l/m 0 min 0 min 15 W/m 12,9 km/h (3 Bft) 95,74 %
07.04.2021 08:22 0,3 C 0,0 C -0,5 C 97 % 1014,2 hPa 0,0 l/m 0 min 0 min 10 W/m 16,1 km/h (3 Bft) 95,74 %
07.04.2021 08:24 0,4 C 0,0 C -0,5 C 97 % 1014,2 hPa 0,0 l/m 0 min 0 min 9 W/m 12,9 km/h (3 Bft) 97,87 %
07.04.2021 08:26 0,4 C 0,0 C -0,5 C 97 % 1014,2 hPa 0,0 l/m 0 min 0 min 10 W/m 12,9 km/h (3 Bft) 97,87 %
07.04.2021 08:28 0,4 C 0,0 C -0,5 C 97 % 1014,2 hPa 0,0 l/m 0 min 0 min 12 W/m 19,3 km/h (3 Bft) 97,87 %
07.04.2021 08:30 0,4 C 0,0 C -0,5 C 97 % 1014,2 hPa 0,0 l/m 0 min 0 min 13 W/m 16,1 km/h (3 Bft) 97,83 %
07.04.2021 08:32 0,4 C 0,0 C -0,5 C 97 % 1014,1 hPa 0,0 l/m 0 min 0 min 24 W/m 16,1 km/h (3 Bft) 94,29 %
07.04.2021 08:34 0,4 C 0,0 C -0,5 C 97 % 1014,2 hPa 0,0 l/m 0 min 0 min 21 W/m 29,0 km/h (5 Bft) 97,87 %
07.04.2021 08:36 0,5 C 0,0 C -0,5 C 97 % 1014,1 hPa 0,0 l/m 0 min 0 min 21 W/m 19,3 km/h (3 Bft) 97,87 %
07.04.2021 08:38 0,5 C 0,0 C -0,5 C 97 % 1014,2 hPa 0,0 l/m 0 min 2 min 21 W/m 19,3 km/h (3 Bft) 98,18 %
07.04.2021 08:40 0,5 C 0,0 C -0,5 C 97 % 1014,1 hPa 0,0 l/m 0 min 0 min 21 W/m 38,6 km/h (5 Bft) 97,87 %
07.04.2021 08:42 0,5 C 0,0 C -0,5 C 97 % 1014,2 hPa 0,0 l/m 0 min 0 min 23 W/m 16,1 km/h (3 Bft) 95,74 %
07.04.2021 08:44 0,5 C 0,0 C -0,5 C 97 % 1014,2 hPa 0,0 l/m 0 min 0 min 25 W/m 22,5 km/h (4 Bft) 97,87 %
07.04.2021 08:46 0,5 C 0,0 C -0,5 C 97 % 1014,2 hPa 0,0 l/m 0 min 0 min 26 W/m 16,1 km/h (3 Bft) 93,62 %
07.04.2021 08:48 0,5 C 0,6 C -0,5 C 97 % 1014,1 hPa 0,0 l/m 0 min 2 min 33 W/m 22,5 km/h (4 Bft) 95,65 %
07.04.2021 08:50 0,5 C 0,6 C -0,5 C 97 % 1014,1 hPa 0,0 l/m 0 min 2 min 27 W/m 32,2 km/h (5 Bft) 95,74 %
07.04.2021 08:52 0,5 C 0,6 C -0,5 C 97 % 1014,1 hPa 0,0 l/m 0 min 2 min 32 W/m 16,1 km/h (3 Bft) 97,92 %
07.04.2021 08:54 0,5 C 0,6 C 0,0 C 97 % 1014,3 hPa 0,0 l/m 0 min 0 min 38 W/m 16,1 km/h (3 Bft) 95,74 %
07.04.2021 08:56 0,5 C 0,6 C -0,5 C 97 % 1014,2 hPa 0,0 l/m 0 min 2 min 41 W/m 16,1 km/h (3 Bft) 97,87 %
07.04.2021 08:58 0,5 C 0,6 C -0,5 C 97 % 1014,1 hPa 0,0 l/m 0 min 2 min 41 W/m 19,3 km/h (3 Bft) 97,87 %
07.04.2021 09:00 0,5 C 0,0 C -0,5 C 97 % 1014,3 hPa 0,0 l/m 0 min 2 min 37 W/m 29,0 km/h (5 Bft) 97,83 %
07.04.2021 09:02 0,5 C 0,0 C -0,5 C 97 % 1014,2 hPa 0,2 l/m 0 min 2 min 40 W/m 16,1 km/h (3 Bft) 95,92 %
07.04.2021 09:04 0,5 C 0,0 C -0,5 C 97 % 1014,1 hPa 0,0 l/m 0 min 2 min 40 W/m 22,5 km/h (4 Bft) 97,87 %
07.04.2021 09:06 0,5 C 0,0 C -1,1 C 97 % 1014,2 hPa 0,0 l/m 0 min 2 min 63 W/m 22,5 km/h (4 Bft) 95,74 %
07.04.2021 09:08 0,5 C 0,0 C -1,1 C 97 % 1014,1 hPa 0,0 l/m 0 min 2 min 72 W/m 35,4 km/h (5 Bft) 95,83 %
07.04.2021 09:10 0,5 C 0,0 C -1,1 C 97 % 1014,2 hPa 0,0 l/m 0 min 2 min 48 W/m 25,7 km/h (4 Bft) 95,74 %
07.04.2021 09:12 0,5 C 0,0 C -1,1 C 97 % 1014,2 hPa 0,0 l/m 0 min 0 min 46 W/m 25,7 km/h (4 Bft) 95,65 %
07.04.2021 09:14 0,5 C 0,0 C -0,5 C 97 % 1014,2 hPa 0,0 l/m 0 min 0 min 47 W/m 16,1 km/h (3 Bft) 95,74 %
07.04.2021 09:16 0,4 C 0,0 C -0,5 C 97 % 1014,2 hPa 0,0 l/m 0 min 0 min 43 W/m 22,5 km/h (4 Bft) 93,62 %
07.04.2021 09:18 0,4 C 0,0 C -0,5 C 97 % 1014,3 hPa 0,0 l/m 0 min 0 min 47 W/m 25,7 km/h (4 Bft) 95,74 %
07.04.2021 09:20 0,4 C 0,0 C -0,5 C 97 % 1014,3 hPa 0,0 l/m 0 min 2 min 46 W/m 22,5 km/h (4 Bft) 95,74 %
07.04.2021 09:22 0,4 C 0,0 C -0,5 C 97 % 1014,2 hPa 0,0 l/m 0 min 2 min 40 W/m 25,7 km/h (4 Bft) 95,74 %
07.04.2021 09:24 0,5 C 0,0 C -0,5 C 97 % 1014,3 hPa 0,0 l/m 0 min 2 min 39 W/m 22,5 km/h (4 Bft) 95,65 %
07.04.2021 09:26 0,5 C 0,0 C -0,5 C 97 % 1014,3 hPa 0,0 l/m 0 min 2 min 36 W/m 16,1 km/h (3 Bft) 95,74 %
07.04.2021 09:28 0,5 C 0,0 C -0,5 C 97 % 1014,4 hPa 0,0 l/m 0 min 0 min 38 W/m 19,3 km/h (3 Bft) 93,62 %
07.04.2021 09:30 0,5 C 0,0 C -0,5 C 97 % 1014,4 hPa 0,0 l/m 0 min 2 min 65 W/m 16,1 km/h (3 Bft) 97,87 %
07.04.2021 09:32 0,5 C 0,0 C -0,5 C 97 % 1014,5 hPa 0,0 l/m 0 min 2 min 65 W/m 38,6 km/h (5 Bft) 95,83 %
07.04.2021 09:34 0,5 C 0,0 C -0,5 C 97 % 1014,4 hPa 0,4 l/m 0 min 2 min 52 W/m 25,7 km/h (4 Bft) 97,83 %
07.04.2021 09:36 0,5 C 0,0 C -0,5 C 97 % 1014,4 hPa 0,0 l/m 0 min 2 min 63 W/m 25,7 km/h (4 Bft) 97,87 %
07.04.2021 09:38 0,5 C 0,0 C -0,5 C 97 % 1014,3 hPa 0,0 l/m 0 min 2 min 78 W/m 19,3 km/h (3 Bft) 93,62 %
07.04.2021 09:40 0,5 C 0,6 C -0,5 C 97 % 1014,4 hPa 0,0 l/m 0 min 2 min 99 W/m 19,3 km/h (3 Bft) 97,87 %
07.04.2021 09:42 0,5 C 0,6 C 0,0 C 97 % 1014,3 hPa 0,0 l/m 0 min 2 min 114 W/m 38,6 km/h (5 Bft) 97,87 %
07.04.2021 09:44 0,5 C 0,6 C 0,0 C 97 % 1014,3 hPa 0,0 l/m 0 min 2 min 115 W/m 41,8 km/h (6 Bft) 95,74 %
07.04.2021 09:46 0,5 C 0,6 C 0,0 C 97 % 1014,3 hPa 0,0 l/m 0 min 2 min 127 W/m 22,5 km/h (4 Bft) 97,83 %
07.04.2021 09:48 0,5 C 0,6 C 0,0 C 97 % 1014,3 hPa 0,0 l/m 0 min 2 min 120 W/m 19,3 km/h (3 Bft) 91,49 %
07.04.2021 09:50 0,5 C 0,6 C 0,0 C 97 % 1014,5 hPa 0,0 l/m 0 min 2 min 118 W/m 22,5 km/h (4 Bft) 97,87 %
07.04.2021 09:52 0,5 C 0,6 C 0,0 C 97 % 1014,5 hPa 0,0 l/m 0 min 2 min 124 W/m 22,5 km/h (4 Bft) 95,74 %
07.04.2021 09:54 0,5 C 0,6 C 0,0 C 97 % 1014,4 hPa 0,4 l/m 0 min 0 min 185 W/m 29,0 km/h (5 Bft) 97,87 %
07.04.2021 09:56 0,6 C 0,6 C 0,0 C 97 % 1014,5 hPa 0,0 l/m 0 min 0 min 214 W/m 22,5 km/h (4 Bft) 95,83 %
07.04.2021 09:58 0,6 C 0,6 C 0,0 C 97 % 1014,4 hPa 0,0 l/m 0 min 2 min 155 W/m 19,3 km/h (3 Bft) 95,74 %
07.04.2021 10:00 0,6 C 0,6 C 0,0 C 97 % 1014,5 hPa 0,0 l/m 0 min 2 min 149 W/m 29,0 km/h (5 Bft) 100,00 %
07.04.2021 10:02 0,6 C 0,6 C 0,0 C 97 % 1014,5 hPa 0,0 l/m 0 min 2 min 132 W/m 22,5 km/h (4 Bft) 97,83 %
07.04.2021 10:04 0,6 C 0,6 C 0,0 C 97 % 1014,5 hPa 0,0 l/m 0 min 2 min 122 W/m 25,7 km/h (4 Bft) 100,00 %
07.04.2021 10:06 0,6 C 0,6 C 0,0 C 97 % 1014,6 hPa 0,0 l/m 0 min 2 min 114 W/m 25,7 km/h (4 Bft) 93,62 %
07.04.2021 10:08 0,6 C 0,6 C 0,0 C 97 % 1014,6 hPa 0,0 l/m 0 min 2 min 131 W/m 22,5 km/h (4 Bft) 97,87 %
07.04.2021 10:10 0,6 C 0,6 C 0,0 C 97 % 1014,6 hPa 0,0 l/m 0 min 2 min 133 W/m 22,5 km/h (4 Bft) 100,00 %
07.04.2021 10:12 0,6 C 0,6 C 0,0 C 97 % 1014,7 hPa 0,0 l/m 0 min 2 min 124 W/m 25,7 km/h (4 Bft) 97,87 %
07.04.2021 10:14 0,6 C 0,6 C 0,0 C 97 % 1014,6 hPa 0,4 l/m 0 min 2 min 100 W/m 19,3 km/h (3 Bft) 97,14 %
07.04.2021 10:16 0,5 C 0,6 C 0,0 C 97 % 1014,7 hPa 0,0 l/m 0 min 2 min 156 W/m 16,1 km/h (3 Bft) 95,74 %
07.04.2021 10:18 0,6 C 0,6 C 0,0 C 97 % 1014,7 hPa 0,0 l/m 0 min 2 min 140 W/m 19,3 km/h (3 Bft) 97,83 %
07.04.2021 10:20 0,6 C 0,6 C 0,0 C 97 % 1014,7 hPa 0,0 l/m 0 min 2 min 103 W/m 19,3 km/h (3 Bft) 97,87 %
07.04.2021 10:22 0,6 C 0,6 C 0,0 C 97 % 1014,8 hPa 0,0 l/m 0 min 2 min 90 W/m 22,5 km/h (4 Bft) 97,87 %
07.04.2021 10:24 0,6 C 0,6 C 0,0 C 97 % 1014,8 hPa 0,0 l/m 0 min 2 min 70 W/m 16,1 km/h (3 Bft) 97,87 %
07.04.2021 10:26 0,6 C 0,6 C 0,0 C 97 % 1014,9 hPa 0,0 l/m 0 min 2 min 104 W/m 19,3 km/h (3 Bft) 97,87 %
07.04.2021 10:28 0,6 C 0,6 C 0,0 C 97 % 1014,9 hPa 0,0 l/m 0 min 2 min 111 W/m 16,1 km/h (3 Bft) 95,74 %
07.04.2021 10:30 0,6 C 0,6 C 0,0 C 97 % 1015,0 hPa 0,0 l/m 0 min 2 min 126 W/m 19,3 km/h (3 Bft) 97,83 %
07.04.2021 10:32 0,6 C 0,6 C 0,0 C 97 % 1015,0 hPa 0,0 l/m 0 min 2 min 140 W/m 12,9 km/h (3 Bft) 97,87 %
07.04.2021 10:34 0,7 C 0,6 C 0,0 C 97 % 1015,0 hPa 0,0 l/m 0 min 2 min 137 W/m 16,1 km/h (3 Bft) 95,74 %
07.04.2021 10:36 0,7 C 0,6 C 0,0 C 97 % 1014,9 hPa 0,0 l/m 0 min 2 min 153 W/m 16,1 km/h (3 Bft) 98,11 %
07.04.2021 10:38 0,8 C 0,6 C 0,6 C 97 % 1015,0 hPa 0,0 l/m 0 min 2 min 172 W/m 16,1 km/h (3 Bft) 97,92 %
07.04.2021 10:40 0,8 C 0,6 C 0,6 C 97 % 1014,9 hPa 0,0 l/m 0 min 2 min 148 W/m 25,7 km/h (4 Bft) 93,62 %
07.04.2021 10:42 0,8 C 0,6 C 0,0 C 97 % 1014,9 hPa 0,4 l/m 0 min 2 min 147 W/m 25,7 km/h (4 Bft) 59,09 %
07.04.2021 10:44 0,8 C 0,6 C 0,0 C 97 % 1014,9 hPa 0,0 l/m 0 min 2 min 124 W/m 25,7 km/h (4 Bft) 97,87 %
07.04.2021 10:46 0,8 C 0,6 C 0,0 C 97 % 1014,9 hPa 0,0 l/m 0 min 2 min 115 W/m 19,3 km/h (3 Bft) 97,83 %
07.04.2021 10:48 0,8 C 0,6 C 0,6 C 97 % 1014,9 hPa 0,0 l/m 0 min 2 min 176 W/m 12,9 km/h (3 Bft) 97,87 %
07.04.2021 10:50 0,8 C 1,1 C 0,6 C 97 % 1014,9 hPa 0,0 l/m 0 min 2 min 214 W/m 16,1 km/h (3 Bft) 97,87 %
07.04.2021 10:52 0,9 C 1,1 C 0,6 C 97 % 1015,0 hPa 0,0 l/m 0 min 0 min 174 W/m 29,0 km/h (5 Bft) 93,88 %
07.04.2021 10:54 0,9 C 1,1 C 0,6 C 97 % 1015,0 hPa 0,0 l/m 0 min 2 min 141 W/m 16,1 km/h (3 Bft) 95,74 %
07.04.2021 10:56 1,0 C 1,1 C 0,6 C 97 % 1015,1 hPa 0,0 l/m 0 min 0 min 126 W/m 16,1 km/h (3 Bft) 97,87 %
07.04.2021 10:58 1,0 C 1,1 C 0,6 C 97 % 1015,1 hPa 0,0 l/m 0 min 2 min 166 W/m 16,1 km/h (3 Bft) 100,00 %
07.04.2021 11:00 1,1 C 1,7 C 0,6 C 97 % 1015,1 hPa 0,0 l/m 0 min 0 min 238 W/m 19,3 km/h (3 Bft) 100,00 %
07.04.2021 11:02 1,1 C 1,7 C 1,1 C 97 % 1015,1 hPa 0,0 l/m 0 min 0 min 277 W/m 25,7 km/h (4 Bft) 100,00 %
07.04.2021 11:04 1,2 C 1,7 C 1,1 C 97 % 1015,1 hPa 0,0 l/m 0 min 2 min 218 W/m 16,1 km/h (3 Bft) 97,87 %
07.04.2021 11:06 1,2 C 1,7 C 1,1 C 97 % 1015,2 hPa 0,0 l/m 0 min 2 min 153 W/m 16,1 km/h (3 Bft) 97,87 %
07.04.2021 11:08 1,3 C 1,1 C 0,6 C 97 % 1015,2 hPa 0,0 l/m 0 min 2 min 102 W/m 19,3 km/h (3 Bft) 100,00 %
07.04.2021 11:10 1,3 C 1,1 C 0,6 C 97 % 1015,3 hPa 0,0 l/m 0 min 2 min 125 W/m 12,9 km/h (3 Bft) 100,00 %
07.04.2021 11:12 1,3 C 1,1 C 0,6 C 97 % 1015,3 hPa 0,0 l/m 0 min 0 min 119 W/m 19,3 km/h (3 Bft) 97,87 %
07.04.2021 11:14 1,3 C 1,1 C 0,6 C 97 % 1015,3 hPa 0,0 l/m 0 min 2 min 123 W/m 16,1 km/h (3 Bft) 97,87 %
07.04.2021 11:16 1,3 C 1,7 C 1,1 C 97 % 1015,3 hPa 0,4 l/m 0 min 0 min 202 W/m 12,9 km/h (3 Bft) 100,00 %
07.04.2021 11:18 1,4 C 1,7 C 1,1 C 97 % 1015,3 hPa 0,0 l/m 0 min 2 min 230 W/m 16,1 km/h (3 Bft) 100,00 %
07.04.2021 11:20 1,5 C 1,7 C 1,1 C 97 % 1015,3 hPa 0,0 l/m 0 min 0 min 152 W/m 12,9 km/h (3 Bft) 100,00 %
07.04.2021 11:22 1,5 C 1,7 C 1,1 C 97 % 1015,3 hPa 0,0 l/m 0 min 0 min 112 W/m 25,7 km/h (4 Bft) 100,00 %
07.04.2021 11:24 1,5 C 1,7 C 1,1 C 97 % 1015,3 hPa 0,0 l/m 0 min 2 min 100 W/m 16,1 km/h (3 Bft) 100,00 %
07.04.2021 11:26 1,5 C 1,1 C 1,1 C 97 % 1015,3 hPa 0,0 l/m 0 min 2 min 89 W/m 16,1 km/h (3 Bft) 100,00 %
07.04.2021 11:28 1,4 C 1,1 C 0,6 C 97 % 1015,4 hPa 0,0 l/m 0 min 2 min 87 W/m 19,3 km/h (3 Bft) 100,00 %
07.04.2021 11:30 1,4 C 1,1 C 0,6 C 97 % 1015,4 hPa 0,0 l/m 0 min 2 min 96 W/m 16,1 km/h (3 Bft) 97,87 %
07.04.2021 11:32 1,4 C 1,1 C 0,6 C 97 % 1015,4 hPa 0,0 l/m 0 min 2 min 82 W/m 6,4 km/h (2 Bft) 100,00 %
07.04.2021 11:34 1,4 C 1,1 C 0,6 C 97 % 1015,5 hPa 0,0 l/m 0 min 2 min 82 W/m 16,1 km/h (3 Bft) 100,00 %
07.04.2021 11:36 1,4 C 1,1 C 0,6 C 97 % 1015,6 hPa 0,0 l/m 0 min 2 min 118 W/m 12,9 km/h (3 Bft) 100,00 %
07.04.2021 11:38 1,4 C 1,1 C 1,1 C 97 % 1015,6 hPa 0,0 l/m 0 min 2 min 141 W/m 9,7 km/h (2 Bft) 100,00 %
07.04.2021 11:40 1,5 C 1,7 C 1,1 C 97 % 1015,5 hPa 0,0 l/m 0 min 0 min 117 W/m 16,1 km/h (3 Bft) 100,00 %
07.04.2021 11:42 1,5 C 1,7 C 1,1 C 97 % 1015,6 hPa 0,0 l/m 0 min 2 min 96 W/m 22,5 km/h (4 Bft) 100,00 %
07.04.2021 11:44 1,5 C 1,7 C 1,1 C 97 % 1015,6 hPa 0,0 l/m 0 min 2 min 100 W/m 25,7 km/h (4 Bft) 100,00 %
07.04.2021 11:46 1,6 C 1,7 C 1,1 C 97 % 1015,6 hPa 0,2 l/m 0 min 0 min 145 W/m 16,1 km/h (3 Bft) 100,00 %
07.04.2021 11:48 1,5 C 1,7 C 1,1 C 97 % 1015,7 hPa 0,0 l/m 0 min 2 min 120 W/m 19,3 km/h (3 Bft) 100,00 %
07.04.2021 11:50 1,6 C 1,7 C 1,1 C 97 % 1015,5 hPa 0,0 l/m 0 min 2 min 161 W/m 16,1 km/h (3 Bft) 100,00 %
07.04.2021 11:52 1,6 C 1,7 C 1,1 C 97 % 1015,5 hPa 0,0 l/m 0 min 2 min 149 W/m 19,3 km/h (3 Bft) 100,00 %
07.04.2021 11:54 1,6 C 1,7 C 1,1 C 98 % 1015,7 hPa 0,0 l/m 0 min 2 min 116 W/m 19,3 km/h (3 Bft) 100,00 %
07.04.2021 11:56 1,6 C 1,7 C 1,1 C 98 % 1015,7 hPa 0,0 l/m 0 min 2 min 113 W/m 19,3 km/h (3 Bft) 100,00 %
07.04.2021 11:58 1,8 C 1,7 C 1,1 C 98 % 1015,8 hPa 0,2 l/m 0 min 2 min 105 W/m 16,1 km/h (3 Bft) 100,00 %
07.04.2021 12:00 1,8 C 1,7 C 1,1 C 98 % 1015,9 hPa 0,0 l/m 0 min 2 min 120 W/m 9,7 km/h (2 Bft) 100,00 %
07.04.2021 12:02 1,8 C 1,7 C 1,1 C 98 % 1016,0 hPa 0,0 l/m 0 min 2 min 148 W/m 12,9 km/h (3 Bft) 97,87 %
07.04.2021 12:04 1,8 C 1,7 C 1,1 C 98 % 1015,9 hPa 0,0 l/m 0 min 2 min 169 W/m 16,1 km/h (3 Bft) 97,87 %
07.04.2021 12:08 1,8 C 1,7 C 1,7 C 98 % 1015,9 hPa 0,0 l/m 0 min 4 min 178 W/m 22,5 km/h (4 Bft) 96,39 %
07.04.2021 12:10 1,9 C 2,2 C 1,7 C 98 % 1016,0 hPa 0,0 l/m 0 min 0 min 204 W/m 19,3 km/h (3 Bft) 97,87 %
07.04.2021 12:12 1,9 C 2,2 C 1,7 C 98 % 1015,9 hPa 0,0 l/m 0 min 0 min 195 W/m 25,7 km/h (4 Bft) 93,62 %
07.04.2021 12:14 2,0 C 2,2 C 1,7 C 97 % 1015,9 hPa 0,0 l/m 0 min 0 min 184 W/m 16,1 km/h (3 Bft) 97,87 %
07.04.2021 12:16 2,1 C 2,2 C 1,7 C 98 % 1015,8 hPa 0,0 l/m 0 min 0 min 196 W/m 16,1 km/h (3 Bft) 95,65 %
07.04.2021 12:18 2,2 C 2,2 C 1,7 C 98 % 1015,9 hPa 0,0 l/m 0 min 0 min 145 W/m 12,9 km/h (3 Bft) 95,74 %
07.04.2021 12:20 2,3 C 2,2 C 1,7 C 98 % 1015,9 hPa 0,0 l/m 0 min 0 min 137 W/m 16,1 km/h (3 Bft) 97,87 %
07.04.2021 12:22 2,3 C 2,2 C 1,7 C 98 % 1015,9 hPa 0,0 l/m 0 min 0 min 172 W/m 16,1 km/h (3 Bft) 97,87 %
07.04.2021 12:24 2,3 C 2,2 C 1,7 C 98 % 1016,0 hPa 0,0 l/m 0 min 0 min 158 W/m 22,5 km/h (4 Bft) 97,87 %
07.04.2021 12:26 2,3 C 2,8 C 2,3 C 98 % 1016,0 hPa 0,0 l/m 0 min 0 min 176 W/m 12,9 km/h (3 Bft) 97,83 %
07.04.2021 12:28 2,4 C 2,8 C 2,3 C 98 % 1016,1 hPa 0,0 l/m 0 min 2 min 158 W/m 16,1 km/h (3 Bft) 97,87 %
07.04.2021 12:30 2,5 C 2,8 C 2,3 C 98 % 1016,1 hPa 0,0 l/m 0 min 0 min 176 W/m 19,3 km/h (3 Bft) 91,49 %
07.04.2021 12:32 2,5 C 2,8 C 2,3 C 98 % 1016,1 hPa 0,0 l/m 0 min 2 min 176 W/m 12,9 km/h (3 Bft) 97,87 %
07.04.2021 12:34 2,6 C 2,8 C 2,3 C 98 % 1016,1 hPa 0,2 l/m 0 min 2 min 138 W/m 25,7 km/h (4 Bft) 97,87 %
07.04.2021 12:36 2,6 C 2,8 C 2,3 C 98 % 1016,2 hPa 0,0 l/m 0 min 2 min 122 W/m 16,1 km/h (3 Bft) 95,74 %
07.04.2021 12:38 2,7 C 2,8 C 2,3 C 98 % 1016,2 hPa 0,0 l/m 0 min 2 min 114 W/m 16,1 km/h (3 Bft) 97,87 %
07.04.2021 12:40 2,8 C 2,8 C 2,3 C 98 % 1016,3 hPa 0,0 l/m 0 min 2 min 172 W/m 9,7 km/h (2 Bft) 97,83 %
07.04.2021 12:42 2,8 C 2,8 C 2,3 C 98 % 1016,3 hPa 0,0 l/m 0 min 2 min 176 W/m 12,9 km/h (3 Bft) 98,18 %
07.04.2021 12:44 2,9 C 2,8 C 2,3 C 98 % 1016,3 hPa 0,0 l/m 0 min 2 min 168 W/m 19,3 km/h (3 Bft) 95,74 %
07.04.2021 12:46 3,0 C 3,3 C 2,8 C 98 % 1016,3 hPa 0,0 l/m 0 min 2 min 183 W/m 12,9 km/h (3 Bft) 97,87 %
07.04.2021 12:48 3,1 C 3,3 C 2,8 C 98 % 1016,4 hPa 0,0 l/m 0 min 2 min 280 W/m 19,3 km/h (3 Bft) 100,00 %
07.04.2021 12:50 3,3 C 3,3 C 2,8 C 98 % 1016,3 hPa 0,0 l/m 0 min 2 min 257 W/m 19,3 km/h (3 Bft) 100,00 %
07.04.2021 12:52 3,4 C 3,9 C 2,8 C 98 % 1016,4 hPa 0,0 l/m 0 min 2 min 240 W/m 16,1 km/h (3 Bft) 96,00 %
07.04.2021 12:54 3,5 C 3,9 C 3,4 C 98 % 1016,5 hPa 0,0 l/m 0 min 2 min 299 W/m 16,1 km/h (3 Bft) 100,00 %
07.04.2021 12:56 3,6 C 4,4 C 3,9 C 98 % 1016,5 hPa 0,0 l/m 0 min 2 min 310 W/m 19,3 km/h (3 Bft) 100,00 %
07.04.2021 12:58 3,8 C 5,6 C 4,5 C 98 % 1016,6 hPa 0,0 l/m 0 min 2 min 336 W/m 19,3 km/h (3 Bft) 100,00 %
07.04.2021 13:00 4,0 C 5,6 C 4,5 C 98 % 1016,5 hPa 0,0 l/m 0 min 0 min 336 W/m 19,3 km/h (3 Bft) 100,00 %
07.04.2021 13:02 4,3 C 6,1 C 5,0 C 98 % 1016,5 hPa 0,0 l/m 0 min 2 min 336 W/m 19,3 km/h (3 Bft) 96,23 %
07.04.2021 13:04 4,5 C 6,7 C 5,6 C 98 % 1016,5 hPa 0,0 l/m 2 min 2 min 474 W/m 22,5 km/h (4 Bft) 100,00 %
07.04.2021 13:06 4,6 C 6,7 C 5,6 C 98 % 1016,6 hPa 0,0 l/m 2 min 2 min 630 W/m 16,1 km/h (3 Bft) 97,87 %
07.04.2021 13:08 4,8 C 6,7 C 5,6 C 98 % 1016,6 hPa 0,0 l/m 2 min 0 min 579 W/m 16,1 km/h (3 Bft) 95,65 %
07.04.2021 13:10 4,9 C 7,2 C 5,6 C 98 % 1016,6 hPa 0,0 l/m 2 min 0 min 569 W/m 16,1 km/h (3 Bft) 97,87 %
07.04.2021 13:12 5,0 C 6,7 C 5,0 C 98 % 1016,6 hPa 0,0 l/m 2 min 0 min 478 W/m 22,5 km/h (4 Bft) 98,00 %
07.04.2021 13:14 5,0 C 6,1 C 5,0 C 98 % 1016,7 hPa 0,0 l/m 2 min 0 min 373 W/m 22,5 km/h (4 Bft) 97,87 %
07.04.2021 13:16 5,0 C 5,6 C 5,0 C 98 % 1016,7 hPa 0,0 l/m 0 min 0 min 295 W/m 19,3 km/h (3 Bft) 95,92 %
07.04.2021 13:18 5,0 C 5,6 C 4,5 C 98 % 1016,7 hPa 0,0 l/m 0 min 0 min 279 W/m 19,3 km/h (3 Bft) 95,65 %
07.04.2021 13:20 5,0 C 5,6 C 4,5 C 98 % 1016,6 hPa 0,0 l/m 0 min 0 min 308 W/m 19,3 km/h (3 Bft) 97,87 %
07.04.2021 13:22 5,0 C 5,6 C 4,5 C 97 % 1016,7 hPa 0,0 l/m 2 min 0 min 363 W/m 12,9 km/h (3 Bft) 97,87 %
07.04.2021 13:24 5,0 C 6,1 C 5,0 C 97 % 1016,7 hPa 0,0 l/m 2 min 0 min 393 W/m 16,1 km/h (3 Bft) 97,87 %
07.04.2021 13:26 5,1 C 6,1 C 5,0 C 97 % 1016,7 hPa 0,0 l/m 2 min 0 min 440 W/m 22,5 km/h (4 Bft) 97,87 %
07.04.2021 13:28 5,1 C 6,1 C 5,0 C 97 % 1016,7 hPa 0,0 l/m 2 min 2 min 430 W/m 25,7 km/h (4 Bft) 97,87 %
07.04.2021 13:30 5,1 C 6,1 C 5,0 C 97 % 1016,7 hPa 0,0 l/m 2 min 2 min 369 W/m 25,7 km/h (4 Bft) 97,83 %
07.04.2021 13:32 5,3 C 6,1 C 5,0 C 96 % 1016,7 hPa 0,0 l/m 2 min 0 min 367 W/m 19,3 km/h (3 Bft) 97,22 %
07.04.2021 13:34 5,3 C 6,1 C 5,0 C 96 % 1016,7 hPa 0,0 l/m 2 min 0 min 353 W/m 16,1 km/h (3 Bft) 97,87 %
07.04.2021 13:36 5,3 C 6,1 C 5,0 C 95 % 1016,7 hPa 0,0 l/m 0 min 0 min 329 W/m 25,7 km/h (4 Bft) 97,87 %
07.04.2021 13:38 5,4 C 6,7 C 5,6 C 95 % 1016,7 hPa 0,0 l/m 2 min 0 min 470 W/m 19,3 km/h (3 Bft) 95,65 %
07.04.2021 13:40 5,5 C 7,2 C 6,1 C 95 % 1016,7 hPa 0,0 l/m 2 min 0 min 519 W/m 19,3 km/h (3 Bft) 95,74 %
07.04.2021 13:42 5,8 C 8,3 C 6,1 C 95 % 1016,7 hPa 0,0 l/m 2 min 0 min 519 W/m 19,3 km/h (3 Bft) 97,87 %
07.04.2021 13:44 5,9 C 7,2 C 6,1 C 95 % 1016,8 hPa 0,0 l/m 2 min 0 min 428 W/m 19,3 km/h (3 Bft) 95,74 %
07.04.2021 13:46 5,9 C 6,7 C 5,6 C 94 % 1016,8 hPa 0,0 l/m 0 min 0 min 310 W/m 16,1 km/h (3 Bft) 95,74 %
07.04.2021 13:48 5,9 C 6,1 C 5,0 C 94 % 1016,8 hPa 0,0 l/m 0 min 0 min 250 W/m 22,5 km/h (4 Bft) 97,87 %
07.04.2021 13:50 5,8 C 5,6 C 5,0 C 93 % 1016,9 hPa 0,0 l/m 0 min 0 min 196 W/m 19,3 km/h (3 Bft) 97,83 %
07.04.2021 13:52 5,6 C 5,6 C 4,5 C 92 % 1016,9 hPa 0,0 l/m 0 min 0 min 157 W/m 32,2 km/h (5 Bft) 97,87 %
07.04.2021 13:54 5,6 C 5,6 C 4,5 C 92 % 1016,9 hPa 0,0 l/m 0 min 0 min 140 W/m 22,5 km/h (4 Bft) 93,62 %
07.04.2021 13:56 5,5 C 5,6 C 4,5 C 92 % 1016,9 hPa 0,0 l/m 0 min 0 min 197 W/m 35,4 km/h (5 Bft) 91,49 %
07.04.2021 13:58 5,4 C 5,6 C 4,5 C 92 % 1017,1 hPa 0,0 l/m 0 min 2 min 234 W/m 16,1 km/h (3 Bft) 93,62 %
07.04.2021 14:00 5,4 C 5,6 C 4,5 C 92 % 1017,2 hPa 0,0 l/m 0 min 0 min 343 W/m 19,3 km/h (3 Bft) 95,74 %
07.04.2021 14:02 5,3 C 5,6 C 4,5 C 93 % 1017,2 hPa 0,0 l/m 0 min 0 min 345 W/m 16,1 km/h (3 Bft) 95,65 %
07.04.2021 14:04 5,4 C 5,6 C 4,5 C 93 % 1017,2 hPa 0,0 l/m 0 min 0 min 315 W/m 22,5 km/h (4 Bft) 95,74 %
07.04.2021 14:06 5,4 C 5,6 C 4,5 C 93 % 1017,2 hPa 0,0 l/m 0 min 0 min 289 W/m 19,3 km/h (3 Bft) 95,74 %
07.04.2021 14:08 5,4 C 5,6 C 4,5 C 93 % 1017,2 hPa 0,0 l/m 0 min 0 min 304 W/m 16,1 km/h (3 Bft) 95,74 %
07.04.2021 14:10 5,4 C 6,1 C 5,0 C 93 % 1017,2 hPa 0,0 l/m 0 min 0 min 291 W/m 16,1 km/h (3 Bft) 95,74 %
07.04.2021 14:12 5,4 C 6,1 C 4,5 C 93 % 1017,2 hPa 0,0 l/m 0 min 0 min 301 W/m 16,1 km/h (3 Bft) 95,74 %
07.04.2021 14:14 5,4 C 6,1 C 4,5 C 93 % 1017,2 hPa 0,0 l/m 0 min 0 min 291 W/m 19,3 km/h (3 Bft) 95,65 %
07.04.2021 14:16 5,5 C 6,1 C 4,5 C 93 % 1017,3 hPa 0,0 l/m 0 min 0 min 290 W/m 19,3 km/h (3 Bft) 97,87 %
07.04.2021 14:18 5,5 C 6,1 C 4,5 C 93 % 1017,3 hPa 0,0 l/m 0 min 0 min 286 W/m 12,9 km/h (3 Bft) 97,87 %
07.04.2021 14:20 5,6 C 6,1 C 5,0 C 93 % 1017,3 hPa 0,0 l/m 0 min 0 min 272 W/m 16,1 km/h (3 Bft) 95,74 %
07.04.2021 14:22 5,7 C 6,1 C 5,0 C 93 % 1017,4 hPa 0,0 l/m 0 min 0 min 269 W/m 22,5 km/h (4 Bft) 95,74 %
07.04.2021 14:24 5,7 C 6,1 C 5,0 C 93 % 1017,3 hPa 0,0 l/m 0 min 0 min 225 W/m 19,3 km/h (3 Bft) 100,00 %
07.04.2021 14:26 5,7 C 5,6 C 4,5 C 92 % 1017,5 hPa 0,0 l/m 0 min 0 min 195 W/m 25,7 km/h (4 Bft) 97,83 %
07.04.2021 14:28 5,8 C 5,6 C 4,5 C 91 % 1017,3 hPa 0,0 l/m 0 min 0 min 210 W/m 22,5 km/h (4 Bft) 97,87 %
07.04.2021 14:30 5,8 C 5,6 C 4,5 C 91 % 1017,4 hPa 0,0 l/m 0 min 0 min 231 W/m 25,7 km/h (4 Bft) 97,87 %
07.04.2021 14:32 5,8 C 6,1 C 4,5 C 90 % 1017,3 hPa 0,0 l/m 0 min 0 min 251 W/m 29,0 km/h (5 Bft) 95,74 %
07.04.2021 14:34 5,9 C 6,1 C 4,5 C 90 % 1017,4 hPa 0,0 l/m 0 min 0 min 243 W/m 32,2 km/h (5 Bft) 97,87 %
07.04.2021 14:36 5,9 C 6,1 C 4,5 C 89 % 1017,5 hPa 0,0 l/m 0 min 0 min 247 W/m 19,3 km/h (3 Bft) 95,65 %
07.04.2021 14:38 6,0 C 6,1 C 4,5 C 89 % 1017,4 hPa 0,0 l/m 0 min 0 min 286 W/m 19,3 km/h (3 Bft) 96,30 %
07.04.2021 14:40 6,1 C 6,7 C 5,0 C 89 % 1017,4 hPa 0,0 l/m 2 min 0 min 381 W/m 16,1 km/h (3 Bft) 97,96 %
07.04.2021 14:42 6,1 C 6,7 C 5,0 C 89 % 1017,4 hPa 0,0 l/m 2 min 0 min 373 W/m 16,1 km/h (3 Bft) 93,62 %
07.04.2021 14:44 6,1 C 6,7 C 5,0 C 89 % 1017,4 hPa 0,0 l/m 0 min 0 min 323 W/m 19,3 km/h (3 Bft) 93,62 %
07.04.2021 14:46 6,1 C 6,1 C 5,0 C 89 % 1017,4 hPa 0,0 l/m 0 min 0 min 233 W/m 19,3 km/h (3 Bft) 95,74 %
07.04.2021 14:48 6,0 C 6,1 C 4,5 C 88 % 1017,4 hPa 0,0 l/m 0 min 0 min 178 W/m 22,5 km/h (4 Bft) 95,74 %
07.04.2021 14:50 5,9 C 6,1 C 4,5 C 88 % 1017,4 hPa 0,0 l/m 0 min 0 min 175 W/m 19,3 km/h (3 Bft) 97,87 %
07.04.2021 14:52 5,8 C 5,6 C 4,5 C 88 % 1017,5 hPa 0,0 l/m 0 min 2 min 131 W/m 16,1 km/h (3 Bft) 93,48 %
07.04.2021 14:54 5,8 C 5,6 C 3,9 C 88 % 1017,5 hPa 0,0 l/m 0 min 2 min 141 W/m 22,5 km/h (4 Bft) 95,74 %
07.04.2021 14:56 5,6 C 5,0 C 3,9 C 89 % 1017,5 hPa 0,0 l/m 0 min 2 min 137 W/m 22,5 km/h (4 Bft) 95,74 %
07.04.2021 14:58 5,5 C 5,0 C 3,9 C 89 % 1017,5 hPa 0,0 l/m 0 min 2 min 128 W/m 19,3 km/h (3 Bft) 97,87 %
07.04.2021 15:00 5,3 C 5,0 C 3,9 C 90 % 1017,5 hPa 0,0 l/m 0 min 2 min 144 W/m 12,9 km/h (3 Bft) 100,00 %
07.04.2021 15:02 5,2 C 5,0 C 3,9 C 90 % 1017,4 hPa 0,0 l/m 0 min 2 min 156 W/m 16,1 km/h (3 Bft) 97,92 %
07.04.2021 15:04 5,1 C 5,0 C 3,9 C 90 % 1017,4 hPa 0,0 l/m 0 min 2 min 97 W/m 12,9 km/h (3 Bft) 96,88 %
07.04.2021 15:06 5,1 C 5,0 C 3,4 C 90 % 1017,4 hPa 0,0 l/m 0 min 2 min 49 W/m 6,4 km/h (2 Bft) 91,30 %
07.04.2021 15:08 5,1 C 5,0 C 3,4 C 90 % 1017,5 hPa 0,2 l/m 0 min 2 min 44 W/m 16,1 km/h (3 Bft) 95,83 %
07.04.2021 15:10 5,1 C 5,0 C 3,4 C 91 % 1017,4 hPa 0,0 l/m 0 min 2 min 57 W/m 12,9 km/h (3 Bft) 94,29 %
07.04.2021 15:12 5,2 C 5,0 C 3,4 C 91 % 1017,4 hPa 0,0 l/m 0 min 0 min 65 W/m 25,7 km/h (4 Bft) 95,74 %
07.04.2021 15:14 5,2 C 5,0 C 3,9 C 91 % 1017,5 hPa 0,0 l/m 0 min 2 min 83 W/m 12,9 km/h (3 Bft) 95,74 %
07.04.2021 15:16 5,3 C 5,0 C 3,9 C 91 % 1017,5 hPa 0,0 l/m 0 min 2 min 104 W/m 12,9 km/h (3 Bft) 96,00 %
07.04.2021 15:18 5,3 C 5,0 C 3,9 C 91 % 1017,5 hPa 0,0 l/m 0 min 2 min 83 W/m 19,3 km/h (3 Bft) 97,83 %
07.04.2021 15:20 5,4 C 5,0 C 3,9 C 91 % 1017,7 hPa 0,0 l/m 0 min 2 min 47 W/m 32,2 km/h (5 Bft) 95,74 %
07.04.2021 15:22 5,2 C 5,0 C 3,4 C 91 % 1017,8 hPa 0,0 l/m 0 min 2 min 57 W/m 38,6 km/h (5 Bft) 93,62 %
07.04.2021 15:24 5,0 C 4,4 C 2,8 C 89 % 1017,8 hPa 0,0 l/m 0 min 2 min 83 W/m 32,2 km/h (5 Bft) 95,74 %
07.04.2021 15:26 4,8 C 4,4 C 2,8 C 88 % 1017,8 hPa 0,0 l/m 0 min 2 min 155 W/m 25,7 km/h (4 Bft) 95,74 %
07.04.2021 15:28 4,8 C 4,4 C 3,4 C 88 % 1017,9 hPa 0,0 l/m 0 min 2 min 212 W/m 22,5 km/h (4 Bft) 95,74 %
07.04.2021 15:30 4,8 C 4,4 C 3,4 C 89 % 1017,9 hPa 0,0 l/m 0 min 2 min 207 W/m 32,2 km/h (5 Bft) 97,83 %
07.04.2021 15:32 4,6 C 4,4 C 2,8 C 89 % 1017,9 hPa 0,0 l/m 0 min 2 min 145 W/m 25,7 km/h (4 Bft) 100,00 %
07.04.2021 15:34 4,5 C 4,4 C 2,8 C 89 % 1017,9 hPa 0,0 l/m 0 min 0 min 148 W/m 29,0 km/h (5 Bft) 100,00 %
07.04.2021 15:36 4,5 C 4,4 C 2,8 C 89 % 1018,0 hPa 0,0 l/m 0 min 2 min 221 W/m 32,2 km/h (5 Bft) 100,00 %
07.04.2021 15:38 4,5 C 4,4 C 3,4 C 89 % 1018,0 hPa 0,0 l/m 0 min 2 min 238 W/m 25,7 km/h (4 Bft) 95,74 %
07.04.2021 15:40 4,5 C 5,0 C 3,4 C 90 % 1018,0 hPa 0,0 l/m 0 min 0 min 248 W/m 25,7 km/h (4 Bft) 100,00 %
07.04.2021 15:42 4,6 C 5,0 C 3,4 C 90 % 1018,0 hPa 0,0 l/m 0 min 0 min 274 W/m 25,7 km/h (4 Bft) 95,74 %
07.04.2021 15:44 4,8 C 5,6 C 3,4 C 90 % 1018,0 hPa 0,0 l/m 2 min 0 min 331 W/m 25,7 km/h (4 Bft) 100,00 %
07.04.2021 15:46 4,9 C 5,6 C 3,4 C 90 % 1018,0 hPa 0,0 l/m 0 min 0 min 269 W/m 32,2 km/h (5 Bft) 100,00 %
07.04.2021 15:48 5,0 C 5,6 C 3,4 C 90 % 1018,0 hPa 0,0 l/m 0 min 0 min 240 W/m 25,7 km/h (4 Bft) 100,00 %
07.04.2021 15:50 5,1 C 5,6 C 3,9 C 90 % 1018,0 hPa 0,0 l/m 0 min 2 min 271 W/m 25,7 km/h (4 Bft) 100,00 %
07.04.2021 15:52 5,1 C 5,6 C 3,9 C 90 % 1018,0 hPa 0,0 l/m 2 min 0 min 305 W/m 38,6 km/h (5 Bft) 95,74 %
07.04.2021 15:54 5,1 C 5,6 C 3,9 C 89 % 1018,0 hPa 0,0 l/m 2 min 0 min 346 W/m 32,2 km/h (5 Bft) 100,00 %
07.04.2021 15:56 5,1 C 5,6 C 3,9 C 89 % 1018,2 hPa 0,0 l/m 2 min 2 min 385 W/m 25,7 km/h (4 Bft) 100,00 %
07.04.2021 15:58 5,2 C 5,6 C 3,9 C 88 % 1018,2 hPa 0,0 l/m 0 min 0 min 276 W/m 25,7 km/h (4 Bft) 95,65 %
07.04.2021 16:00 5,1 C 5,0 C 3,4 C 88 % 1018,4 hPa 0,0 l/m 0 min 2 min 170 W/m 38,6 km/h (5 Bft) 100,00 %
07.04.2021 16:02 5,0 C 4,4 C 3,4 C 87 % 1018,2 hPa 0,0 l/m 0 min 2 min 133 W/m 38,6 km/h (5 Bft) 100,00 %
07.04.2021 16:04 4,9 C 5,0 C 3,4 C 88 % 1018,3 hPa 0,0 l/m 0 min 2 min 216 W/m 25,7 km/h (4 Bft) 100,00 %
07.04.2021 16:06 4,9 C 6,1 C 3,4 C 88 % 1018,4 hPa 0,0 l/m 2 min 0 min 394 W/m 35,4 km/h (5 Bft) 100,00 %
07.04.2021 16:08 5,0 C 6,1 C 3,9 C 88 % 1018,3 hPa 0,0 l/m 2 min 0 min 431 W/m 32,2 km/h (5 Bft) 97,87 %
07.04.2021 16:10 5,1 C 6,7 C 3,9 C 88 % 1018,3 hPa 0,0 l/m 2 min 0 min 452 W/m 22,5 km/h (4 Bft) 100,00 %
07.04.2021 16:12 5,2 C 6,1 C 3,9 C 88 % 1018,3 hPa 0,0 l/m 2 min 0 min 352 W/m 19,3 km/h (3 Bft) 100,00 %
07.04.2021 16:14 5,3 C 5,6 C 3,9 C 88 % 1018,4 hPa 0,0 l/m 0 min 0 min 175 W/m 25,7 km/h (4 Bft) 100,00 %
07.04.2021 16:16 5,3 C 5,0 C 3,9 C 88 % 1018,5 hPa 0,0 l/m 0 min 0 min 111 W/m 41,8 km/h (6 Bft) 97,87 %
07.04.2021 16:18 5,2 C 5,0 C 3,9 C 88 % 1018,7 hPa 0,0 l/m 0 min 0 min 200 W/m 45,1 km/h (6 Bft) 100,00 %
07.04.2021 16:20 5,0 C 5,0 C 3,4 C 87 % 1018,6 hPa 0,0 l/m 0 min 0 min 268 W/m 41,8 km/h (6 Bft) 97,87 %
07.04.2021 16:22 4,9 C 5,6 C 3,4 C 87 % 1018,7 hPa 0,0 l/m 2 min 2 min 286 W/m 51,5 km/h (7 Bft) 100,00 %
07.04.2021 16:24 4,8 C 5,6 C 3,4 C 88 % 1018,6 hPa 0,0 l/m 2 min 2 min 325 W/m 32,2 km/h (5 Bft) 100,00 %
07.04.2021 16:26 4,8 C 5,6 C 3,4 C 88 % 1018,5 hPa 0,0 l/m 2 min 2 min 283 W/m 48,3 km/h (6 Bft) 97,87 %
07.04.2021 16:28 4,8 C 7,8 C 3,9 C 88 % 1018,7 hPa 0,0 l/m 2 min 0 min 400 W/m 41,8 km/h (6 Bft) 100,00 %
07.04.2021 16:30 5,0 C 7,2 C 3,9 C 88 % 1018,6 hPa 0,0 l/m 2 min 0 min 668 W/m 29,0 km/h (5 Bft) 100,00 %
07.04.2021 16:32 5,1 C 6,7 C 3,9 C 88 % 1018,6 hPa 0,0 l/m 2 min 0 min 612 W/m 29,0 km/h (5 Bft) 100,00 %
07.04.2021 16:34 5,2 C 7,2 C 3,9 C 88 % 1018,8 hPa 0,0 l/m 2 min 0 min 446 W/m 32,2 km/h (5 Bft) 97,83 %
07.04.2021 16:36 5,3 C 6,7 C 3,9 C 88 % 1018,8 hPa 0,0 l/m 2 min 0 min 405 W/m 38,6 km/h (5 Bft) 97,87 %
07.04.2021 16:38 5,2 C 6,7 C 3,9 C 87 % 1018,9 hPa 0,0 l/m 2 min 0 min 274 W/m 25,7 km/h (4 Bft) 97,87 %
07.04.2021 16:40 5,2 C 6,1 C 3,9 C 87 % 1018,9 hPa 0,0 l/m 2 min 0 min 394 W/m 32,2 km/h (5 Bft) 97,87 %
07.04.2021 16:42 5,2 C 6,1 C 3,9 C 87 % 1019,0 hPa 0,0 l/m 2 min 0 min 266 W/m 22,5 km/h (4 Bft) 97,87 %
07.04.2021 16:44 5,1 C 5,6 C 3,9 C 86 % 1018,9 hPa 0,0 l/m 0 min 0 min 241 W/m 35,4 km/h (5 Bft) 97,87 %
07.04.2021 16:46 5,0 C 5,0 C 3,4 C 87 % 1018,8 hPa 0,0 l/m 0 min 0 min 202 W/m 29,0 km/h (5 Bft) 97,83 %
07.04.2021 16:48 5,0 C 5,0 C 3,4 C 87 % 1018,9 hPa 0,0 l/m 0 min 0 min 172 W/m 35,4 km/h (5 Bft) 97,87 %
07.04.2021 16:50 4,9 C 5,0 C 3,4 C 87 % 1019,0 hPa 0,0 l/m 0 min 0 min 123 W/m 32,2 km/h (5 Bft) 97,87 %
07.04.2021 16:52 4,9 C 4,4 C 3,4 C 86 % 1019,1 hPa 0,0 l/m 0 min 2 min 102 W/m 29,0 km/h (5 Bft) 97,87 %
07.04.2021 16:54 4,8 C 4,4 C 2,8 C 87 % 1019,1 hPa 0,0 l/m 0 min 2 min 97 W/m 32,2 km/h (5 Bft) 95,74 %
07.04.2021 16:56 4,6 C 3,9 C 2,8 C 87 % 1019,2 hPa 0,0 l/m 0 min 2 min 98 W/m 38,6 km/h (5 Bft) 97,87 %
07.04.2021 16:58 4,3 C 3,9 C 2,3 C 88 % 1019,1 hPa 0,0 l/m 0 min 2 min 85 W/m 19,3 km/h (3 Bft) 95,65 %
07.04.2021 17:00 4,0 C 3,3 C 2,3 C 88 % 1019,1 hPa 0,0 l/m 0 min 2 min 103 W/m 35,4 km/h (5 Bft) 97,87 %
07.04.2021 17:02 3,9 C 3,3 C 2,3 C 89 % 1019,2 hPa 0,0 l/m 0 min 2 min 92 W/m 22,5 km/h (4 Bft) 95,74 %
07.04.2021 17:04 3,9 C 3,3 C 2,3 C 89 % 1019,1 hPa 0,0 l/m 0 min 0 min 81 W/m 25,7 km/h (4 Bft) 95,74 %
07.04.2021 17:06 3,9 C 3,3 C 2,3 C 90 % 1019,1 hPa 0,0 l/m 0 min 0 min 90 W/m 25,7 km/h (4 Bft) 97,87 %
07.04.2021 17:08 3,8 C 3,3 C 2,3 C 90 % 1019,2 hPa 0,0 l/m 0 min 0 min 64 W/m 19,3 km/h (3 Bft) 95,74 %
07.04.2021 17:10 3,8 C 3,3 C 2,3 C 90 % 1019,2 hPa 0,0 l/m 0 min 0 min 65 W/m 25,7 km/h (4 Bft) 97,83 %
07.04.2021 17:12 3,8 C 3,3 C 2,3 C 90 % 1019,2 hPa 0,0 l/m 0 min 2 min 60 W/m 19,3 km/h (3 Bft) 97,87 %
07.04.2021 17:14 3,9 C 3,3 C 2,3 C 90 % 1019,1 hPa 0,0 l/m 0 min 2 min 52 W/m 16,1 km/h (3 Bft) 97,87 %
07.04.2021 17:16 3,9 C 3,3 C 2,3 C 90 % 1019,1 hPa 0,0 l/m 0 min 2 min 63 W/m 19,3 km/h (3 Bft) 97,87 %
07.04.2021 17:18 3,9 C 3,9 C 2,3 C 90 % 1019,1 hPa 0,0 l/m 0 min 2 min 84 W/m 12,9 km/h (3 Bft) 97,73 %
07.04.2021 17:20 3,9 C 3,9 C 2,3 C 90 % 1019,1 hPa 0,0 l/m 0 min 2 min 92 W/m 16,1 km/h (3 Bft) 97,87 %
07.04.2021 17:22 3,9 C 3,9 C 2,3 C 90 % 1019,2 hPa 0,0 l/m 0 min 2 min 98 W/m 12,9 km/h (3 Bft) 95,74 %
07.04.2021 17:24 4,0 C 3,9 C 2,3 C 90 % 1019,2 hPa 0,0 l/m 0 min 2 min 103 W/m 6,4 km/h (2 Bft) 95,74 %
07.04.2021 17:26 4,0 C 3,9 C 2,3 C 91 % 1019,3 hPa 0,0 l/m 0 min 2 min 83 W/m 19,3 km/h (3 Bft) 97,87 %
07.04.2021 17:28 4,0 C 3,9 C 2,8 C 91 % 1019,4 hPa 0,0 l/m 0 min 2 min 58 W/m 19,3 km/h (3 Bft) 95,65 %
07.04.2021 17:30 4,0 C 3,9 C 2,8 C 90 % 1019,3 hPa 0,0 l/m 0 min 2 min 57 W/m 22,5 km/h (4 Bft) 97,87 %
07.04.2021 17:32 4,1 C 3,9 C 2,3 C 90 % 1019,5 hPa 0,0 l/m 0 min 2 min 56 W/m 19,3 km/h (3 Bft) 97,96 %
07.04.2021 17:34 4,0 C 3,3 C 2,3 C 90 % 1019,5 hPa 0,0 l/m 0 min 2 min 60 W/m 19,3 km/h (3 Bft) 97,87 %
07.04.2021 17:36 3,9 C 3,3 C 2,3 C 90 % 1019,5 hPa 0,2 l/m 0 min 2 min 56 W/m 16,1 km/h (3 Bft) 97,87 %
07.04.2021 17:38 3,7 C 3,3 C 1,7 C 90 % 1019,6 hPa 0,0 l/m 0 min 2 min 93 W/m 16,1 km/h (3 Bft) 97,87 %
07.04.2021 17:40 3,6 C 3,3 C 1,7 C 90 % 1019,6 hPa 0,0 l/m 0 min 2 min 119 W/m 12,9 km/h (3 Bft) 95,65 %
07.04.2021 17:42 3,5 C 3,3 C 1,7 C 91 % 1019,6 hPa 0,0 l/m 0 min 2 min 142 W/m 22,5 km/h (4 Bft) 95,74 %
07.04.2021 17:44 3,4 C 3,3 C 1,7 C 91 % 1019,6 hPa 0,0 l/m 0 min 2 min 144 W/m 25,7 km/h (4 Bft) 95,74 %
07.04.2021 17:46 3,4 C 3,3 C 1,7 C 91 % 1019,6 hPa 0,0 l/m 0 min 2 min 142 W/m 19,3 km/h (3 Bft) 97,87 %
07.04.2021 17:48 3,4 C 3,3 C 2,3 C 92 % 1019,6 hPa 0,0 l/m 0 min 2 min 113 W/m 12,9 km/h (3 Bft) 97,87 %
07.04.2021 17:50 3,4 C 3,3 C 2,3 C 92 % 1019,6 hPa 0,0 l/m 0 min 2 min 117 W/m 35,4 km/h (5 Bft) 97,83 %
07.04.2021 17:56 3,4 C 3,3 C 2,3 C 92 % 1019,5 hPa 0,0 l/m 0 min 5 min 109 W/m 16,1 km/h (3 Bft) 94,74 %
07.04.2021 17:58 3,3 C 3,3 C 1,7 C 92 % 1019,5 hPa 0,0 l/m 0 min 2 min 132 W/m 19,3 km/h (3 Bft) 95,74 %
07.04.2021 18:00 3,3 C 3,3 C 1,7 C 92 % 1019,6 hPa 0,0 l/m 0 min 2 min 145 W/m 19,3 km/h (3 Bft) 97,87 %
07.04.2021 18:02 3,3 C 3,3 C 1,7 C 91 % 1019,5 hPa 0,0 l/m 0 min 0 min 134 W/m 16,1 km/h (3 Bft) 95,74 %
07.04.2021 18:04 3,3 C 4,4 C 1,7 C 91 % 1019,5 hPa 0,0 l/m 0 min 0 min 162 W/m 22,5 km/h (4 Bft) 97,83 %
07.04.2021 18:08 3,6 C 4,4 C 2,3 C 91 % 1019,6 hPa 0,0 l/m 4 min 0 min 284 W/m 19,3 km/h (3 Bft) 96,81 %
07.04.2021 18:10 3,6 C 3,9 C 2,3 C 90 % 1019,6 hPa 0,0 l/m 0 min 0 min 141 W/m 19,3 km/h (3 Bft) 97,87 %
07.04.2021 18:12 3,7 C 3,9 C 2,3 C 90 % 1019,6 hPa 0,0 l/m 0 min 0 min 134 W/m 22,5 km/h (4 Bft) 93,62 %
07.04.2021 18:14 3,7 C 3,9 C 2,3 C 90 % 1019,6 hPa 0,0 l/m 0 min 0 min 137 W/m 19,3 km/h (3 Bft) 95,65 %
07.04.2021 18:16 3,8 C 3,9 C 2,3 C 90 % 1019,6 hPa 0,0 l/m 0 min 0 min 136 W/m 22,5 km/h (4 Bft) 95,74 %
07.04.2021 18:18 3,8 C 4,4 C 2,3 C 89 % 1019,6 hPa 0,0 l/m 0 min 0 min 137 W/m 16,1 km/h (3 Bft) 56,52 %
07.04.2021 18:20 3,8 C 4,4 C 2,3 C 89 % 1019,7 hPa 0,0 l/m 0 min 0 min 141 W/m 12,9 km/h (3 Bft) 95,74 %
07.04.2021 18:22 3,9 C 4,4 C 2,3 C 89 % 1019,7 hPa 0,0 l/m 2 min 0 min 146 W/m 22,5 km/h (4 Bft) 100,00 %
07.04.2021 18:24 3,9 C 4,4 C 2,3 C 89 % 1019,7 hPa 0,0 l/m 2 min 0 min 161 W/m 12,9 km/h (3 Bft) 100,00 %
07.04.2021 18:26 4,0 C 5,0 C 2,3 C 88 % 1019,7 hPa 0,0 l/m 2 min 0 min 195 W/m 22,5 km/h (4 Bft) 100,00 %
07.04.2021 18:28 4,0 C 5,6 C 2,8 C 88 % 1019,7 hPa 0,0 l/m 2 min 0 min 220 W/m 22,5 km/h (4 Bft) 100,00 %
07.04.2021 18:30 4,3 C 6,1 C 2,8 C 87 % 1019,7 hPa 0,0 l/m 2 min 0 min 251 W/m 12,9 km/h (3 Bft) 97,87 %
07.04.2021 18:32 4,4 C 6,1 C 2,8 C 87 % 1019,7 hPa 0,0 l/m 2 min 0 min 195 W/m 16,1 km/h (3 Bft) 100,00 %
07.04.2021 18:34 4,5 C 5,6 C 2,8 C 86 % 1019,7 hPa 0,0 l/m 2 min 0 min 150 W/m 22,5 km/h (4 Bft) 100,00 %
07.04.2021 18:36 4,4 C 5,0 C 2,8 C 85 % 1019,7 hPa 0,0 l/m 0 min 0 min 121 W/m 19,3 km/h (3 Bft) 100,00 %
07.04.2021 18:38 4,4 C 4,4 C 2,8 C 85 % 1019,8 hPa 0,0 l/m 0 min 0 min 106 W/m 16,1 km/h (3 Bft) 95,74 %
07.04.2021 18:40 4,4 C 4,4 C 2,8 C 85 % 1019,8 hPa 0,0 l/m 0 min 0 min 104 W/m 16,1 km/h (3 Bft) 100,00 %
07.04.2021 18:42 4,4 C 4,4 C 2,8 C 85 % 1019,9 hPa 0,0 l/m 0 min 0 min 93 W/m 35,4 km/h (5 Bft) 100,00 %
07.04.2021 18:44 4,4 C 4,4 C 2,8 C 84 % 1019,9 hPa 0,0 l/m 0 min 0 min 64 W/m 29,0 km/h (5 Bft) 100,00 %
07.04.2021 18:46 4,4 C 3,9 C 2,8 C 84 % 1019,9 hPa 0,0 l/m 0 min 0 min 46 W/m 25,7 km/h (4 Bft) 100,00 %
07.04.2021 18:48 4,4 C 3,9 C 2,3 C 84 % 1020,0 hPa 0,0 l/m 0 min 2 min 30 W/m 32,2 km/h (5 Bft) 100,00 %
07.04.2021 18:50 4,3 C 3,9 C 2,3 C 84 % 1020,1 hPa 0,0 l/m 0 min 2 min 30 W/m 32,2 km/h (5 Bft) 100,00 %
07.04.2021 18:52 4,1 C 3,3 C 2,3 C 83 % 1020,0 hPa 0,0 l/m 0 min 2 min 63 W/m 19,3 km/h (3 Bft) 100,00 %
07.04.2021 18:54 3,9 C 3,3 C 2,3 C 84 % 1020,0 hPa 0,0 l/m 2 min 2 min 105 W/m 22,5 km/h (4 Bft) 100,00 %
07.04.2021 18:56 3,8 C 3,9 C 2,3 C 85 % 1020,0 hPa 0,0 l/m 2 min 2 min 132 W/m 22,5 km/h (4 Bft) 97,87 %
07.04.2021 18:58 3,8 C 3,9 C 2,3 C 85 % 1020,1 hPa 0,0 l/m 2 min 0 min 131 W/m 22,5 km/h (4 Bft) 100,00 %
07.04.2021 19:00 3,8 C 3,9 C 2,3 C 86 % 1020,1 hPa 0,0 l/m 2 min 0 min 97 W/m 22,5 km/h (4 Bft) 95,74 %
07.04.2021 19:02 3,9 C 3,9 C 2,3 C 86 % 1020,0 hPa 0,0 l/m 0 min 0 min 72 W/m 22,5 km/h (4 Bft) 95,74 %
07.04.2021 19:04 3,9 C 3,9 C 2,3 C 86 % 1020,1 hPa 0,0 l/m 0 min 0 min 64 W/m 16,1 km/h (3 Bft) 97,87 %
07.04.2021 19:06 4,0 C 3,9 C 2,3 C 86 % 1020,1 hPa 0,0 l/m 0 min 0 min 60 W/m 12,9 km/h (3 Bft) 97,83 %
07.04.2021 19:08 3,9 C 3,9 C 2,3 C 85 % 1020,0 hPa 0,0 l/m 0 min 0 min 55 W/m 22,5 km/h (4 Bft) 97,87 %
07.04.2021 19:10 3,9 C 3,9 C 2,3 C 85 % 1020,0 hPa 0,0 l/m 0 min 0 min 51 W/m 12,9 km/h (3 Bft) 97,87 %
07.04.2021 19:12 3,9 C 3,9 C 2,3 C 85 % 1020,0 hPa 0,0 l/m 0 min 0 min 52 W/m 16,1 km/h (3 Bft) 95,74 %
07.04.2021 19:14 3,9 C 3,3 C 2,3 C 85 % 1020,0 hPa 0,0 l/m 0 min 0 min 51 W/m 19,3 km/h (3 Bft) 97,87 %
07.04.2021 19:16 3,9 C 3,3 C 2,3 C 85 % 1020,0 hPa 0,0 l/m 0 min 0 min 50 W/m 12,9 km/h (3 Bft) 97,87 %
07.04.2021 19:18 3,8 C 3,3 C 2,3 C 84 % 1020,1 hPa 0,0 l/m 0 min 0 min 42 W/m 16,1 km/h (3 Bft) 97,83 %
07.04.2021 19:20 3,8 C 3,3 C 2,3 C 85 % 1020,1 hPa 0,0 l/m 0 min 0 min 40 W/m 16,1 km/h (3 Bft) 91,49 %
07.04.2021 19:22 3,8 C 3,3 C 2,3 C 85 % 1020,2 hPa 0,0 l/m 0 min 0 min 31 W/m 12,9 km/h (3 Bft) 55,32 %
07.04.2021 19:24 3,9 C 3,3 C 2,3 C 84 % 1020,3 hPa 0,0 l/m 0 min 0 min 23 W/m 19,3 km/h (3 Bft) 94,44 %
07.04.2021 19:26 3,9 C 3,3 C 2,3 C 84 % 1020,3 hPa 0,0 l/m 0 min 0 min 17 W/m 22,5 km/h (4 Bft) 97,87 %
07.04.2021 19:28 3,9 C 3,3 C 2,3 C 84 % 1020,4 hPa 0,0 l/m 0 min 0 min 14 W/m 25,7 km/h (4 Bft) 95,74 %
07.04.2021 19:30 3,8 C 3,3 C 2,3 C 85 % 1020,3 hPa 0,0 l/m 0 min 0 min 12 W/m 29,0 km/h (5 Bft) 95,65 %
07.04.2021 19:32 3,8 C 3,3 C 2,3 C 85 % 1020,4 hPa 0,0 l/m 0 min 0 min 14 W/m 25,7 km/h (4 Bft) 93,62 %
07.04.2021 19:34 3,8 C 2,8 C 2,3 C 85 % 1020,4 hPa 0,0 l/m 0 min 0 min 14 W/m 19,3 km/h (3 Bft) 95,74 %
07.04.2021 19:36 3,6 C 2,8 C 1,7 C 86 % 1020,4 hPa 0,0 l/m 0 min 2 min 15 W/m 22,5 km/h (4 Bft) 93,62 %
07.04.2021 19:38 3,5 C 2,8 C 1,7 C 86 % 1020,4 hPa 0,2 l/m 0 min 2 min 13 W/m 16,1 km/h (3 Bft) 95,74 %
07.04.2021 19:40 3,5 C 2,8 C 1,7 C 87 % 1020,4 hPa 0,0 l/m 0 min 2 min 10 W/m 19,3 km/h (3 Bft) 95,74 %
07.04.2021 19:42 3,4 C 2,8 C 1,7 C 87 % 1020,5 hPa 0,0 l/m 0 min 2 min 6 W/m 32,2 km/h (5 Bft) 95,65 %
07.04.2021 19:44 3,3 C 2,8 C 1,1 C 87 % 1020,5 hPa 0,0 l/m 0 min 2 min 2 W/m 32,2 km/h (5 Bft) 93,62 %
07.04.2021 19:46 3,1 C 2,2 C 1,1 C 88 % 1020,6 hPa 0,0 l/m 0 min 2 min 0 W/m 25,7 km/h (4 Bft) 93,62 %
07.04.2021 19:48 3,0 C 1,7 C 0,6 C 88 % 1020,7 hPa 0,0 l/m 0 min 2 min 0 W/m 22,5 km/h (4 Bft) 95,74 %
07.04.2021 19:50 2,7 C 1,7 C 0,6 C 89 % 1020,8 hPa 0,0 l/m 0 min 2 min 0 W/m 19,3 km/h (3 Bft) 95,74 %
07.04.2021 19:52 2,5 C 1,7 C 0,6 C 89 % 1020,8 hPa 0,0 l/m 0 min 2 min 0 W/m 22,5 km/h (4 Bft) 95,74 %
07.04.2021 19:54 2,3 C 1,1 C 0,6 C 90 % 1020,8 hPa 0,0 l/m 0 min 2 min 2 W/m 32,2 km/h (5 Bft) 95,65 %
07.04.2021 19:56 2,2 C 1,1 C 0,6 C 90 % 1020,9 hPa 0,0 l/m 0 min 2 min 7 W/m 29,0 km/h (5 Bft) 93,62 %
07.04.2021 19:58 2,1 C 1,1 C 0,6 C 91 % 1020,9 hPa 0,2 l/m 0 min 2 min 6 W/m 29,0 km/h (5 Bft) 95,74 %
07.04.2021 20:00 2,0 C 1,1 C 0,6 C 91 % 1020,9 hPa 0,0 l/m 0 min 2 min 5 W/m 19,3 km/h (3 Bft) 95,74 %
07.04.2021 20:02 2,0 C 1,1 C 0,6 C 91 % 1020,8 hPa 0,0 l/m 0 min 2 min 0 W/m 19,3 km/h (3 Bft) 95,74 %
07.04.2021 20:04 2,0 C 1,1 C 0,6 C 92 % 1020,8 hPa 0,0 l/m 0 min 2 min 0 W/m 19,3 km/h (3 Bft) 95,74 %
07.04.2021 20:06 1,9 C 1,1 C 0,6 C 92 % 1020,8 hPa 0,0 l/m 0 min 2 min 0 W/m 32,2 km/h (5 Bft) 95,65 %
07.04.2021 20:08 1,9 C 1,1 C 0,6 C 92 % 1020,8 hPa 0,0 l/m 0 min 2 min 0 W/m 16,1 km/h (3 Bft) 95,74 %
07.04.2021 20:10 1,9 C 1,1 C 0,6 C 92 % 1020,8 hPa 0,0 l/m 0 min 2 min 0 W/m 19,3 km/h (3 Bft) 95,74 %
07.04.2021 20:12 1,9 C 1,1 C 0,6 C 93 % 1020,8 hPa 0,2 l/m 0 min 2 min 0 W/m 19,3 km/h (3 Bft) 97,87 %
07.04.2021 20:14 2,0 C 1,7 C 0,6 C 93 % 1020,8 hPa 0,0 l/m 0 min 2 min 0 W/m 16,1 km/h (3 Bft) 97,87 %
07.04.2021 20:16 2,0 C 1,7 C 0,6 C 93 % 1020,8 hPa 0,0 l/m 0 min 0 min 0 W/m 16,1 km/h (3 Bft) 100,00 %
07.04.2021 20:18 2,0 C 1,7 C 0,6 C 93 % 1020,8 hPa 0,0 l/m 0 min 2 min 0 W/m 19,3 km/h (3 Bft) 97,83 %
07.04.2021 20:20 2,0 C 1,7 C 0,6 C 93 % 1020,8 hPa 0,0 l/m 0 min 2 min 0 W/m 16,1 km/h (3 Bft) 98,15 %
07.04.2021 20:22 2,1 C 1,7 C 0,6 C 93 % 1020,9 hPa 0,0 l/m 0 min 2 min 0 W/m 16,1 km/h (3 Bft) 97,83 %
07.04.2021 20:24 2,1 C 1,7 C 0,6 C 93 % 1020,9 hPa 0,0 l/m 0 min 2 min 0 W/m 19,3 km/h (3 Bft) 97,87 %
07.04.2021 20:26 2,1 C 1,7 C 0,6 C 93 % 1020,9 hPa 0,0 l/m 0 min 0 min 0 W/m 19,3 km/h (3 Bft) 97,87 %
07.04.2021 20:28 2,2 C 1,7 C 0,6 C 93 % 1020,9 hPa 0,0 l/m 0 min 0 min 0 W/m 16,1 km/h (3 Bft) 95,74 %
07.04.2021 20:30 2,2 C 1,7 C 0,6 C 93 % 1020,9 hPa 0,0 l/m 0 min 0 min 0 W/m 16,1 km/h (3 Bft) 97,87 %
07.04.2021 20:32 2,3 C 1,7 C 0,6 C 93 % 1021,0 hPa 0,0 l/m 0 min 0 min 0 W/m 16,1 km/h (3 Bft) 95,74 %
07.04.2021 20:34 2,3 C 1,7 C 0,6 C 93 % 1020,9 hPa 0,0 l/m 0 min 0 min 0 W/m 12,9 km/h (3 Bft) 95,65 %
07.04.2021 20:36 2,3 C 1,7 C 0,6 C 93 % 1021,0 hPa 0,0 l/m 0 min 0 min 0 W/m 12,9 km/h (3 Bft) 95,74 %
07.04.2021 20:38 2,3 C 1,7 C 0,6 C 93 % 1020,9 hPa 0,0 l/m 0 min 0 min 0 W/m 16,1 km/h (3 Bft) 95,74 %
07.04.2021 20:40 2,3 C 1,7 C 0,6 C 92 % 1021,0 hPa 0,0 l/m 0 min 2 min 0 W/m 9,7 km/h (2 Bft) 95,74 %
07.04.2021 20:42 2,3 C 1,7 C 0,6 C 92 % 1021,0 hPa 0,0 l/m 0 min 0 min 0 W/m 6,4 km/h (2 Bft) 95,74 %
07.04.2021 20:44 2,3 C 1,7 C 0,6 C 92 % 1021,0 hPa 0,0 l/m 0 min 0 min 0 W/m 16,1 km/h (3 Bft) 97,87 %
07.04.2021 20:46 2,3 C 1,7 C 0,6 C 92 % 1021,1 hPa 0,0 l/m 0 min 0 min 0 W/m 6,4 km/h (2 Bft) 95,65 %
07.04.2021 20:48 2,3 C 1,7 C 0,6 C 92 % 1021,1 hPa 0,0 l/m 0 min 0 min 0 W/m 12,9 km/h (3 Bft) 95,74 %
07.04.2021 20:50 2,4 C 1,7 C 0,6 C 92 % 1021,0 hPa 0,0 l/m 0 min 0 min 0 W/m 19,3 km/h (3 Bft) 97,87 %
07.04.2021 20:52 2,4 C 1,7 C 0,6 C 93 % 1021,2 hPa 0,0 l/m 0 min 0 min 0 W/m 6,4 km/h (2 Bft) 97,87 %
07.04.2021 20:54 2,4 C 1,7 C 0,6 C 93 % 1021,2 hPa 0,0 l/m 0 min 0 min 0 W/m 6,4 km/h (2 Bft) 95,74 %
07.04.2021 20:56 2,4 C 2,2 C 0,6 C 93 % 1021,1 hPa 0,0 l/m 0 min 0 min 0 W/m 12,9 km/h (3 Bft) 95,74 %
07.04.2021 20:58 2,4 C 2,2 C 0,6 C 93 % 1021,2 hPa 0,0 l/m 0 min 0 min 0 W/m 6,4 km/h (2 Bft) 97,83 %
07.04.2021 21:00 2,5 C 2,2 C 1,1 C 93 % 1021,2 hPa 0,0 l/m 0 min 0 min 0 W/m 9,7 km/h (2 Bft) 97,87 %
07.04.2021 21:02 2,5 C 2,2 C 1,1 C 92 % 1021,2 hPa 0,0 l/m 0 min 0 min 0 W/m 9,7 km/h (2 Bft) 97,62 %
07.04.2021 21:04 2,5 C 2,2 C 1,1 C 93 % 1021,2 hPa 0,0 l/m 0 min 0 min 0 W/m 12,9 km/h (3 Bft) 97,87 %
07.04.2021 21:06 2,5 C 2,2 C 1,1 C 93 % 1021,3 hPa 0,0 l/m 0 min 0 min 0 W/m 12,9 km/h (3 Bft) 95,74 %
07.04.2021 21:08 2,5 C 2,2 C 1,1 C 92 % 1021,3 hPa 0,0 l/m 0 min 0 min 0 W/m 12,9 km/h (3 Bft) 93,75 %
07.04.2021 21:10 2,6 C 2,2 C 1,1 C 92 % 1021,3 hPa 0,0 l/m 0 min 0 min 0 W/m 9,7 km/h (2 Bft) 97,83 %
07.04.2021 21:12 2,6 C 2,2 C 1,1 C 92 % 1021,3 hPa 0,0 l/m 0 min 0 min 0 W/m 12,9 km/h (3 Bft) 95,74 %
07.04.2021 21:14 2,6 C 2,2 C 1,1 C 92 % 1021,4 hPa 0,0 l/m 0 min 0 min 0 W/m 12,9 km/h (3 Bft) 97,87 %
07.04.2021 21:16 2,6 C 2,2 C 1,1 C 92 % 1021,4 hPa 0,0 l/m 0 min 0 min 0 W/m 12,9 km/h (3 Bft) 97,87 %
07.04.2021 21:18 2,6 C 2,2 C 1,1 C 92 % 1021,4 hPa 0,0 l/m 0 min 0 min 0 W/m 12,9 km/h (3 Bft) 97,87 %
07.04.2021 21:20 2,6 C 2,2 C 1,1 C 92 % 1021,4 hPa 0,0 l/m 0 min 0 min 0 W/m 12,9 km/h (3 Bft) 97,96 %
07.04.2021 21:22 2,6 C 2,2 C 1,1 C 92 % 1021,4 hPa 0,0 l/m 0 min 0 min 0 W/m 12,9 km/h (3 Bft) 97,87 %
07.04.2021 21:24 2,6 C 2,2 C 1,1 C 92 % 1021,4 hPa 0,0 l/m 0 min 2 min 0 W/m 12,9 km/h (3 Bft) 93,62 %
07.04.2021 21:26 2,6 C 2,2 C 1,1 C 92 % 1021,4 hPa 0,0 l/m 0 min 0 min 0 W/m 12,9 km/h (3 Bft) 97,87 %
07.04.2021 21:28 2,6 C 2,2 C 1,1 C 91 % 1021,4 hPa 0,0 l/m 0 min 0 min 0 W/m 12,9 km/h (3 Bft) 97,87 %
07.04.2021 21:30 2,7 C 2,2 C 1,1 C 91 % 1021,5 hPa 0,0 l/m 0 min 0 min 0 W/m 16,1 km/h (3 Bft) 97,87 %
07.04.2021 21:32 2,7 C 2,2 C 1,1 C 91 % 1021,4 hPa 0,0 l/m 0 min 0 min 0 W/m 16,1 km/h (3 Bft) 97,83 %
07.04.2021 21:34 2,7 C 2,2 C 1,1 C 91 % 1021,5 hPa 0,0 l/m 0 min 0 min 0 W/m 12,9 km/h (3 Bft) 100,00 %
07.04.2021 21:36 2,7 C 2,2 C 1,1 C 91 % 1021,5 hPa 0,0 l/m 0 min 0 min 0 W/m 16,1 km/h (3 Bft) 100,00 %
07.04.2021 21:38 2,7 C 2,2 C 1,1 C 91 % 1021,5 hPa 0,0 l/m 0 min 0 min 0 W/m 16,1 km/h (3 Bft) 95,74 %
07.04.2021 21:40 2,7 C 2,2 C 1,1 C 91 % 1021,5 hPa 0,0 l/m 0 min 0 min 0 W/m 19,3 km/h (3 Bft) 100,00 %
07.04.2021 21:42 2,6 C 2,2 C 1,1 C 91 % 1021,5 hPa 0,0 l/m 0 min 0 min 0 W/m 12,9 km/h (3 Bft) 100,00 %
07.04.2021 21:44 2,6 C 2,2 C 1,1 C 91 % 1021,5 hPa 0,0 l/m 0 min 0 min 0 W/m 32,2 km/h (5 Bft) 100,00 %
07.04.2021 21:46 2,6 C 2,2 C 1,1 C 90 % 1021,6 hPa 0,0 l/m 0 min 0 min 0 W/m 12,9 km/h (3 Bft) 100,00 %
07.04.2021 21:48 2,6 C 2,2 C 1,1 C 90 % 1021,6 hPa 0,0 l/m 0 min 0 min 0 W/m 22,5 km/h (4 Bft) 97,87 %
07.04.2021 21:50 2,6 C 2,2 C 1,1 C 90 % 1021,6 hPa 0,0 l/m 0 min 0 min 0 W/m 16,1 km/h (3 Bft) 100,00 %
07.04.2021 21:52 2,6 C 2,2 C 1,1 C 90 % 1021,7 hPa 0,0 l/m 0 min 0 min 0 W/m 16,1 km/h (3 Bft) 100,00 %
07.04.2021 21:54 2,6 C 2,2 C 1,1 C 90 % 1021,7 hPa 0,0 l/m 0 min 0 min 0 W/m 16,1 km/h (3 Bft) 100,00 %
07.04.2021 21:56 2,6 C 2,2 C 1,1 C 90 % 1021,7 hPa 0,0 l/m 0 min 0 min 0 W/m 19,3 km/h (3 Bft) 95,74 %
07.04.2021 21:58 2,5 C 2,2 C 1,1 C 90 % 1021,7 hPa 0,0 l/m 0 min 0 min 0 W/m 19,3 km/h (3 Bft) 100,00 %
07.04.2021 22:00 2,5 C 2,2 C 1,1 C 90 % 1021,7 hPa 0,0 l/m 0 min 0 min 0 W/m 12,9 km/h (3 Bft) 97,87 %
07.04.2021 22:02 2,5 C 2,2 C 1,1 C 90 % 1021,7 hPa 0,0 l/m 0 min 0 min 0 W/m 12,9 km/h (3 Bft) 97,83 %
07.04.2021 22:04 2,5 C 2,2 C 1,1 C 90 % 1021,7 hPa 0,0 l/m 0 min 0 min 0 W/m 9,7 km/h (2 Bft) 97,87 %
07.04.2021 22:06 2,5 C 2,2 C 1,1 C 90 % 1021,7 hPa 0,0 l/m 0 min 0 min 0 W/m 12,9 km/h (3 Bft) 97,92 %
07.04.2021 22:08 2,5 C 2,2 C 1,1 C 90 % 1021,8 hPa 0,0 l/m 0 min 0 min 0 W/m 16,1 km/h (3 Bft) 100,00 %
07.04.2021 22:10 2,5 C 1,7 C 1,1 C 90 % 1021,8 hPa 0,0 l/m 0 min 0 min 0 W/m 12,9 km/h (3 Bft) 97,87 %
07.04.2021 22:12 2,5 C 1,7 C 1,1 C 90 % 1021,8 hPa 0,0 l/m 0 min 0 min 0 W/m 12,9 km/h (3 Bft) 97,87 %
07.04.2021 22:14 2,4 C 1,7 C 1,1 C 90 % 1021,8 hPa 0,0 l/m 0 min 0 min 0 W/m 16,1 km/h (3 Bft) 97,87 %
07.04.2021 22:16 2,4 C 1,7 C 1,1 C 90 % 1021,8 hPa 0,0 l/m 0 min 0 min 0 W/m 9,7 km/h (2 Bft) 97,87 %
07.04.2021 22:18 2,4 C 1,7 C 1,1 C 90 % 1021,8 hPa 0,0 l/m 0 min 0 min 0 W/m 12,9 km/h (3 Bft) 97,87 %
07.04.2021 22:20 2,4 C 1,7 C 1,1 C 90 % 1021,8 hPa 0,0 l/m 0 min 0 min 0 W/m 12,9 km/h (3 Bft) 97,83 %
07.04.2021 22:22 2,4 C 1,7 C 1,1 C 90 % 1021,8 hPa 0,0 l/m 0 min 0 min 0 W/m 9,7 km/h (2 Bft) 97,87 %
07.04.2021 22:24 2,4 C 1,7 C 1,1 C 90 % 1021,9 hPa 0,0 l/m 0 min 0 min 0 W/m 9,7 km/h (2 Bft) 97,87 %
07.04.2021 22:26 2,3 C 1,7 C 1,1 C 90 % 1021,9 hPa 0,0 l/m 0 min 0 min 0 W/m 12,9 km/h (3 Bft) 93,62 %
07.04.2021 22:28 2,3 C 1,7 C 1,1 C 90 % 1021,9 hPa 0,0 l/m 0 min 0 min 0 W/m 6,4 km/h (2 Bft) 97,87 %
07.04.2021 22:30 2,3 C 1,7 C 1,1 C 90 % 1021,9 hPa 0,0 l/m 0 min 0 min 0 W/m 19,3 km/h (3 Bft) 95,74 %
07.04.2021 22:32 2,3 C 1,7 C 1,1 C 91 % 1021,9 hPa 0,0 l/m 0 min 0 min 0 W/m 9,7 km/h (2 Bft) 100,00 %
07.04.2021 22:34 2,3 C 1,7 C 1,1 C 91 % 1021,9 hPa 0,0 l/m 0 min 0 min 0 W/m 16,1 km/h (3 Bft) 97,87 %
07.04.2021 22:36 2,3 C 1,7 C 1,1 C 91 % 1021,9 hPa 0,0 l/m 0 min 0 min 0 W/m 9,7 km/h (2 Bft) 100,00 %
07.04.2021 22:38 2,3 C 1,7 C 1,1 C 91 % 1022,0 hPa 0,0 l/m 0 min 0 min 0 W/m 9,7 km/h (2 Bft) 100,00 %
07.04.2021 22:40 2,3 C 1,7 C 1,1 C 91 % 1022,0 hPa 0,0 l/m 0 min 0 min 0 W/m 12,9 km/h (3 Bft) 97,14 %
07.04.2021 22:42 2,3 C 1,7 C 1,1 C 91 % 1022,0 hPa 0,0 l/m 0 min 0 min 0 W/m 12,9 km/h (3 Bft) 100,00 %
07.04.2021 22:44 2,3 C 1,7 C 1,1 C 91 % 1022,0 hPa 0,0 l/m 0 min 0 min 0 W/m 16,1 km/h (3 Bft) 100,00 %
07.04.2021 22:46 2,3 C 1,7 C 1,1 C 91 % 1022,0 hPa 0,0 l/m 0 min 0 min 0 W/m 25,7 km/h (4 Bft) 97,87 %
07.04.2021 22:48 2,3 C 1,7 C 1,1 C 91 % 1022,0 hPa 0,0 l/m 0 min 0 min 0 W/m 12,9 km/h (3 Bft) 100,00 %
07.04.2021 22:50 2,3 C 1,7 C 1,1 C 91 % 1022,0 hPa 0,0 l/m 0 min 0 min 0 W/m 19,3 km/h (3 Bft) 100,00 %
07.04.2021 22:52 2,3 C 1,7 C 1,1 C 91 % 1022,1 hPa 0,0 l/m 0 min 0 min 0 W/m 9,7 km/h (2 Bft) 74,47 %
07.04.2021 22:54 2,3 C 1,7 C 1,1 C 91 % 1022,1 hPa 0,0 l/m 0 min 0 min 0 W/m 6,4 km/h (2 Bft) 82,22 %
07.04.2021 22:56 2,3 C 1,7 C 1,1 C 91 % 1022,1 hPa 0,0 l/m 0 min 2 min 0 W/m 12,9 km/h (3 Bft) 97,87 %
07.04.2021 22:58 2,3 C 1,7 C 1,1 C 91 % 1022,1 hPa 0,0 l/m 0 min 0 min 0 W/m 12,9 km/h (3 Bft) 100,00 %
07.04.2021 23:00 2,3 C 1,7 C 1,1 C 91 % 1022,0 hPa 0,0 l/m 0 min 0 min 0 W/m 12,9 km/h (3 Bft) 100,00 %
07.04.2021 23:02 2,3 C 1,7 C 1,1 C 91 % 1022,1 hPa 0,0 l/m 0 min 0 min 0 W/m 9,7 km/h (2 Bft) 97,87 %
07.04.2021 23:04 2,3 C 1,7 C 1,1 C 91 % 1022,2 hPa 0,0 l/m 0 min 0 min 0 W/m 9,7 km/h (2 Bft) 100,00 %
07.04.2021 23:06 2,3 C 1,7 C 1,1 C 91 % 1022,1 hPa 0,0 l/m 0 min 0 min 0 W/m 12,9 km/h (3 Bft) 100,00 %
07.04.2021 23:08 2,3 C 1,7 C 1,1 C 91 % 1022,1 hPa 0,0 l/m 0 min 0 min 0 W/m 16,1 km/h (3 Bft) 100,00 %
07.04.2021 23:10 2,3 C 1,7 C 1,1 C 91 % 1022,1 hPa 0,0 l/m 0 min 0 min 0 W/m 22,5 km/h (4 Bft) 100,00 %
07.04.2021 23:12 2,3 C 1,7 C 1,1 C 91 % 1022,2 hPa 0,0 l/m 0 min 0 min 0 W/m 12,9 km/h (3 Bft) 100,00 %
07.04.2021 23:14 2,3 C 1,7 C 1,1 C 91 % 1022,1 hPa 0,0 l/m 0 min 0 min 0 W/m 16,1 km/h (3 Bft) 100,00 %
07.04.2021 23:16 2,3 C 1,7 C 1,1 C 91 % 1022,2 hPa 0,0 l/m 0 min 0 min 0 W/m 6,4 km/h (2 Bft) 100,00 %
07.04.2021 23:18 2,3 C 1,7 C 1,1 C 91 % 1022,1 hPa 0,0 l/m 0 min 0 min 0 W/m 12,9 km/h (3 Bft) 100,00 %
07.04.2021 23:20 2,3 C 1,7 C 1,1 C 91 % 1022,2 hPa 0,0 l/m 0 min 0 min 0 W/m 12,9 km/h (3 Bft) 100,00 %
07.04.2021 23:22 2,2 C 1,7 C 1,1 C 91 % 1022,3 hPa 0,0 l/m 0 min 0 min 0 W/m 16,1 km/h (3 Bft) 96,30 %
07.04.2021 23:24 2,2 C 1,7 C 1,1 C 91 % 1022,3 hPa 0,0 l/m 0 min 0 min 0 W/m 6,4 km/h (2 Bft) 100,00 %
07.04.2021 23:26 2,2 C 1,7 C 1,1 C 91 % 1022,3 hPa 0,0 l/m 0 min 0 min 0 W/m 12,9 km/h (3 Bft) 97,87 %
07.04.2021 23:28 2,2 C 1,7 C 1,1 C 91 % 1022,4 hPa 0,0 l/m 0 min 0 min 0 W/m 12,9 km/h (3 Bft) 100,00 %
07.04.2021 23:30 2,1 C 1,7 C 1,1 C 91 % 1022,4 hPa 0,0 l/m 0 min 0 min 0 W/m 9,7 km/h (2 Bft) 100,00 %
07.04.2021 23:32 2,1 C 1,7 C 1,1 C 91 % 1022,3 hPa 0,0 l/m 0 min 0 min 0 W/m 16,1 km/h (3 Bft) 100,00 %
07.04.2021 23:34 2,1 C 1,7 C 1,1 C 91 % 1022,4 hPa 0,0 l/m 0 min 0 min 0 W/m 12,9 km/h (3 Bft) 100,00 %
07.04.2021 23:36 2,1 C 1,7 C 0,6 C 91 % 1022,4 hPa 0,0 l/m 0 min 0 min 0 W/m 9,7 km/h (2 Bft) 100,00 %
07.04.2021 23:38 2,1 C 1,7 C 0,6 C 91 % 1022,4 hPa 0,0 l/m 0 min 0 min 0 W/m 9,7 km/h (2 Bft) 100,00 %
07.04.2021 23:40 2,1 C 1,7 C 0,6 C 91 % 1022,4 hPa 0,0 l/m 0 min 0 min 0 W/m 6,4 km/h (2 Bft) 93,62 %
07.04.2021 23:42 2,1 C 1,7 C 0,6 C 91 % 1022,5 hPa 0,0 l/m 0 min 0 min 0 W/m 12,9 km/h (3 Bft) 97,87 %
07.04.2021 23:44 2,1 C 1,7 C 0,6 C 91 % 1022,5 hPa 0,0 l/m 0 min 0 min 0 W/m 12,9 km/h (3 Bft) 47,37 %
07.04.2021 23:46 2,0 C 1,7 C 0,6 C 91 % 1022,5 hPa 0,0 l/m 0 min 0 min 0 W/m 16,1 km/h (3 Bft) 100,00 %
07.04.2021 23:48 2,0 C 1,7 C 0,6 C 91 % 1022,5 hPa 0,0 l/m 0 min 0 min 0 W/m 6,4 km/h (2 Bft) 100,00 %
07.04.2021 23:50 2,0 C 1,7 C 0,6 C 91 % 1022,5 hPa 0,0 l/m 0 min 0 min 0 W/m 9,7 km/h (2 Bft) 100,00 %
07.04.2021 23:52 2,0 C 1,1 C 0,6 C 91 % 1022,5 hPa 0,0 l/m 0 min 0 min 0 W/m 9,7 km/h (2 Bft) 100,00 %
07.04.2021 23:54 2,0 C 1,1 C 0,6 C 91 % 1022,5 hPa 0,0 l/m 0 min 0 min 0 W/m 9,7 km/h (2 Bft) 100,00 %
07.04.2021 23:56 2,0 C 1,1 C 0,6 C 91 % 1022,5 hPa 0,0 l/m 0 min 0 min 0 W/m 12,9 km/h (3 Bft) 97,83 %
07.04.2021 23:58 2,0 C 1,1 C 0,6 C 91 % 1022,5 hPa 0,0 l/m 0 min 0 min 0 W/m 9,7 km/h (2 Bft) 100,00 %
_ Min-Zeit 01:10 00:28 01:30 18:52 00:00 - - - - 00:16 23:44
Minimum _ -0,5 C -1,1 C -2,2 C 83 % 1013,7 hPa - - - - 3,2 km/h (1 Bft) 47,37 %
_ Max-Zeit 14:40 13:42 13:40 11:54 23:42 09:34 18:08 17:56 16:30 16:22 01:30
Maximum _ 6,1 C 8,3 C 6,1 C 98 % 1022,5 hPa 0,4 l/m 4 min 5 min 668 W/m 51,5 km/h
NO (7 Bft)
100,00 %
Durchschnitt _ 1,9 C 1,7 C 0,8 C 94 % 1017,0 hPa #3,8 l/m #1:42 h #6:47 h 154 W/m 16,4 km/h (3 Bft) 97,12 %
© 2021 W. Hausmann